<?xml version='1.0' encoding='UTF-8'?><gpx version="1.1" creator="JPX - https://github.com/jenetics/jpx" xmlns="http://www.topografix.com/GPX/1/1"><trk><trkseg><trkpt lat="48.57340153780928" lon="-4.415619252983001"><ele>62.0</ele><time>2026-04-25T15:47:47.003Z</time></trkpt><trkpt lat="48.573396692593825" lon="-4.415516559948968"><ele>62.00000000000001</ele><time>2026-04-25T15:47:53.002Z</time></trkpt><trkpt lat="48.573363127355535" lon="-4.415418923375303"><ele>62.0</ele><time>2026-04-25T15:47:55.002Z</time></trkpt><trkpt lat="48.57335445724302" lon="-4.415297104972838"><ele>62.0</ele><time>2026-04-25T15:47:57.002Z</time></trkpt><trkpt lat="48.57335209856858" lon="-4.4151947021792095"><ele>62.00000000000001</ele><time>2026-04-25T15:47:59.001Z</time></trkpt><trkpt lat="48.57335830608262" lon="-4.415074062738532"><ele>62.0</ele><time>2026-04-25T15:48:01.001Z</time></trkpt><trkpt lat="48.573353856478235" lon="-4.414955475803623"><ele>62.0</ele><time>2026-04-25T15:48:03.001Z</time></trkpt><trkpt lat="48.573310173116624" lon="-4.414876727346395"><ele>62.16666666666667</ele><time>2026-04-25T15:48:06.001Z</time></trkpt><trkpt lat="48.573285995759555" lon="-4.4147522546980875"><ele>62.333333333333336</ele><time>2026-04-25T15:48:11.001Z</time></trkpt><trkpt lat="48.57318080881469" lon="-4.414767077182155"><ele>62.5</ele><time>2026-04-25T15:48:13.001Z</time></trkpt><trkpt lat="48.57311700158786" lon="-4.414781767710727"><ele>62.66666666666667</ele><time>2026-04-25T15:48:14.001Z</time></trkpt><trkpt lat="48.57304569849704" lon="-4.414806495929002"><ele>62.833333333333336</ele><time>2026-04-25T15:48:15Z</time></trkpt><trkpt lat="48.572960811595856" lon="-4.414837885594923"><ele>63.0</ele><time>2026-04-25T15:48:16Z</time></trkpt><trkpt lat="48.57287347781297" lon="-4.414861013875138"><ele>62.833333333333336</ele><time>2026-04-25T15:48:17Z</time></trkpt><trkpt lat="48.5727893088665" lon="-4.414884570695444"><ele>62.66666666666667</ele><time>2026-04-25T15:48:18Z</time></trkpt><trkpt lat="48.5727092581042" lon="-4.414914110948368"><ele>62.5</ele><time>2026-04-25T15:48:19Z</time></trkpt><trkpt lat="48.57262710246915" lon="-4.414938861398258"><ele>62.333333333333336</ele><time>2026-04-25T15:48:20Z</time></trkpt><trkpt lat="48.57254588802349" lon="-4.414968924382771"><ele>62.16666666666667</ele><time>2026-04-25T15:48:21Z</time></trkpt><trkpt lat="48.57246467937884" lon="-4.4149950875864645"><ele>62.0</ele><time>2026-04-25T15:48:22Z</time></trkpt><trkpt lat="48.5723867608843" lon="-4.415016457012475"><ele>62.00000000000001</ele><time>2026-04-25T15:48:23Z</time></trkpt><trkpt lat="48.57231018827644" lon="-4.4150386736973735"><ele>62.0</ele><time>2026-04-25T15:48:24Z</time></trkpt><trkpt lat="48.57224176396176" lon="-4.4150626307952905"><ele>62.0</ele><time>2026-04-25T15:48:25Z</time></trkpt><trkpt lat="48.57217980673622" lon="-4.415099653746093"><ele>62.0</ele><time>2026-04-25T15:48:26Z</time></trkpt><trkpt lat="48.572073924907876" lon="-4.415150975860161"><ele>62.00000000000001</ele><time>2026-04-25T15:48:28Z</time></trkpt><trkpt lat="48.572030932979374" lon="-4.415040890362128"><ele>62.0</ele><time>2026-04-25T15:48:30Z</time></trkpt><trkpt lat="48.57205461647187" lon="-4.414884352727151"><ele>62.00000000000001</ele><time>2026-04-25T15:48:32Z</time></trkpt><trkpt lat="48.57205194277177" lon="-4.41468704806126"><ele>62.0</ele><time>2026-04-25T15:48:34Z</time></trkpt><trkpt lat="48.572042519591264" lon="-4.414585015285204"><ele>62.0</ele><time>2026-04-25T15:48:35Z</time></trkpt><trkpt lat="48.57203470228322" lon="-4.414479728578882"><ele>62.0</ele><time>2026-04-25T15:48:36Z</time></trkpt><trkpt lat="48.57202574816664" lon="-4.41436069760425"><ele>62.00000000000001</ele><time>2026-04-25T15:48:37Z</time></trkpt><trkpt lat="48.572022734398374" lon="-4.414248238905248"><ele>62.0</ele><time>2026-04-25T15:48:38Z</time></trkpt><trkpt lat="48.5720190625603" lon="-4.4141311117275155"><ele>61.66666666666667</ele><time>2026-04-25T15:48:39Z</time></trkpt><trkpt lat="48.57201197055915" lon="-4.414002549863883"><ele>61.333333333333336</ele><time>2026-04-25T15:48:40Z</time></trkpt><trkpt lat="48.57200482636067" lon="-4.413867866520319"><ele>61.0</ele><time>2026-04-25T15:48:41Z</time></trkpt><trkpt lat="48.57199874321061" lon="-4.413733956068156"><ele>60.66666666666667</ele><time>2026-04-25T15:48:42Z</time></trkpt><trkpt lat="48.57199599780414" lon="-4.413609879899158"><ele>60.333333333333336</ele><time>2026-04-25T15:48:43Z</time></trkpt><trkpt lat="48.57199178121034" lon="-4.413487459818117"><ele>60.0</ele><time>2026-04-25T15:48:44Z</time></trkpt><trkpt lat="48.57198747670436" lon="-4.413368083152578"><ele>59.666666666666664</ele><time>2026-04-25T15:48:45Z</time></trkpt><trkpt lat="48.57197291829641" lon="-4.413244826150769"><ele>59.33333333333333</ele><time>2026-04-25T15:48:46Z</time></trkpt><trkpt lat="48.57196165923954" lon="-4.413115912359638"><ele>59.0</ele><time>2026-04-25T15:48:47Z</time></trkpt><trkpt lat="48.57195390539929" lon="-4.412996900733017"><ele>58.666666666666664</ele><time>2026-04-25T15:48:48Z</time></trkpt><trkpt lat="48.5719517529655" lon="-4.412871484370505"><ele>58.33333333333333</ele><time>2026-04-25T15:48:49Z</time></trkpt><trkpt lat="48.57194557878885" lon="-4.412745691443203"><ele>58.0</ele><time>2026-04-25T15:48:50Z</time></trkpt><trkpt lat="48.57193759084256" lon="-4.412638871842819"><ele>58.0</ele><time>2026-04-25T15:48:51Z</time></trkpt><trkpt lat="48.57192896259542" lon="-4.412540314275768"><ele>58.0</ele><time>2026-04-25T15:48:52Z</time></trkpt><trkpt lat="48.57191222634681" lon="-4.412365450671513"><ele>58.0</ele><time>2026-04-25T15:48:54Z</time></trkpt><trkpt lat="48.57184828942437" lon="-4.412259501822724"><ele>58.0</ele><time>2026-04-25T15:48:56Z</time></trkpt><trkpt lat="48.571722279888775" lon="-4.412299637966955"><ele>58.0</ele><time>2026-04-25T15:48:58Z</time></trkpt><trkpt lat="48.57165805057315" lon="-4.412321818533038"><ele>57.99999999999999</ele><time>2026-04-25T15:48:59Z</time></trkpt><trkpt lat="48.571594140394765" lon="-4.412277658985073"><ele>58.0</ele><time>2026-04-25T15:49:00Z</time></trkpt><trkpt lat="48.57154425005982" lon="-4.412175371513346"><ele>58.0</ele><time>2026-04-25T15:49:01Z</time></trkpt><trkpt lat="48.57152826891514" lon="-4.412062926219009"><ele>58.0</ele><time>2026-04-25T15:49:01.999Z</time></trkpt><trkpt lat="48.57152974117126" lon="-4.411927632146124"><ele>57.99999999999999</ele><time>2026-04-25T15:49:02.999Z</time></trkpt><trkpt lat="48.57153627987724" lon="-4.411808047770126"><ele>58.0</ele><time>2026-04-25T15:49:03.999Z</time></trkpt><trkpt lat="48.571535697500366" lon="-4.411688761910801"><ele>57.99999999999999</ele><time>2026-04-25T15:49:04.999Z</time></trkpt><trkpt lat="48.57155024919658" lon="-4.4115724974602895"><ele>58.0</ele><time>2026-04-25T15:49:05.999Z</time></trkpt><trkpt lat="48.57156663926868" lon="-4.411454640118276"><ele>58.0</ele><time>2026-04-25T15:49:06.999Z</time></trkpt><trkpt lat="48.57157727019722" lon="-4.411326756237932"><ele>58.0</ele><time>2026-04-25T15:49:07.999Z</time></trkpt><trkpt lat="48.57158523225739" lon="-4.411197291901773"><ele>57.99999999999999</ele><time>2026-04-25T15:49:08.999Z</time></trkpt><trkpt lat="48.57158892440441" lon="-4.411069801700321"><ele>58.0</ele><time>2026-04-25T15:49:09.999Z</time></trkpt><trkpt lat="48.571593841753234" lon="-4.410938994658741"><ele>58.0</ele><time>2026-04-25T15:49:10.999Z</time></trkpt><trkpt lat="48.5715999610315" lon="-4.410808488650185"><ele>58.0</ele><time>2026-04-25T15:49:11.999Z</time></trkpt><trkpt lat="48.57160691322882" lon="-4.410676546338774"><ele>58.0</ele><time>2026-04-25T15:49:12.999Z</time></trkpt><trkpt lat="48.57161632510598" lon="-4.4105477357444745"><ele>58.0</ele><time>2026-04-25T15:49:13.999Z</time></trkpt><trkpt lat="48.57163262960836" lon="-4.410412197256469"><ele>58.0</ele><time>2026-04-25T15:49:14.999Z</time></trkpt><trkpt lat="48.57165011788347" lon="-4.410265007041199"><ele>58.0</ele><time>2026-04-25T15:49:15.999Z</time></trkpt><trkpt lat="48.57166865360625" lon="-4.410123684183862"><ele>58.0</ele><time>2026-04-25T15:49:16.999Z</time></trkpt><trkpt lat="48.57168378489392" lon="-4.410011354836243"><ele>58.0</ele><time>2026-04-25T15:49:17.999Z</time></trkpt><trkpt lat="48.5716984145567" lon="-4.409917391612904"><ele>58.0</ele><time>2026-04-25T15:49:18.999Z</time></trkpt><trkpt lat="48.57171201729439" lon="-4.409752636122151"><ele>58.0</ele><time>2026-04-25T15:49:20.999Z</time></trkpt><trkpt lat="48.571703968171285" lon="-4.409566990992635"><ele>58.2</ele><time>2026-04-25T15:49:22.999Z</time></trkpt><trkpt lat="48.5717031813069" lon="-4.40945337806994"><ele>58.4</ele><time>2026-04-25T15:49:23.999Z</time></trkpt><trkpt lat="48.57170166855988" lon="-4.4093404510281"><ele>58.60000000000001</ele><time>2026-04-25T15:49:24.999Z</time></trkpt><trkpt lat="48.57170156970004" lon="-4.409211158442483"><ele>58.800000000000004</ele><time>2026-04-25T15:49:26.999Z</time></trkpt><trkpt lat="48.57172481015749" lon="-4.409061018641066"><ele>59.0</ele><time>2026-04-25T15:49:28.999Z</time></trkpt><trkpt lat="48.571773727267114" lon="-4.408906452681014"><ele>59.0</ele><time>2026-04-25T15:49:30.999Z</time></trkpt><trkpt lat="48.571839167880384" lon="-4.408728110287656"><ele>59.0</ele><time>2026-04-25T15:49:32.999Z</time></trkpt><trkpt lat="48.571879268886704" lon="-4.4086277521513715"><ele>59.0</ele><time>2026-04-25T15:49:33.999Z</time></trkpt><trkpt lat="48.5719280129981" lon="-4.408483587958449"><ele>59.0</ele><time>2026-04-25T15:49:35.999Z</time></trkpt><trkpt lat="48.571999067477414" lon="-4.40830710113327"><ele>59.00000000000001</ele><time>2026-04-25T15:49:37.999Z</time></trkpt><trkpt lat="48.57204706400535" lon="-4.408207711084719"><ele>59.0</ele><time>2026-04-25T15:49:38.999Z</time></trkpt><trkpt lat="48.572096261269245" lon="-4.408095953760187"><ele>59.0</ele><time>2026-04-25T15:49:39.999Z</time></trkpt><trkpt lat="48.572143911065616" lon="-4.407983016940853"><ele>59.0</ele><time>2026-04-25T15:49:40.999Z</time></trkpt><trkpt lat="48.57218772440828" lon="-4.407887377121874"><ele>59.00000000000001</ele><time>2026-04-25T15:49:41.999Z</time></trkpt><trkpt lat="48.57224579406925" lon="-4.407742336064181"><ele>59.0</ele><time>2026-04-25T15:49:43.999Z</time></trkpt><trkpt lat="48.572236944022876" lon="-4.407604827820722"><ele>59.2</ele><time>2026-04-25T15:49:45.999Z</time></trkpt><trkpt lat="48.57213925251105" lon="-4.407518294237753"><ele>59.400000000000006</ele><time>2026-04-25T15:49:47.999Z</time></trkpt><trkpt lat="48.57205881012928" lon="-4.407528623404452"><ele>59.6</ele><time>2026-04-25T15:49:48.999Z</time></trkpt><trkpt lat="48.57196889683902" lon="-4.4075638552241925"><ele>59.8</ele><time>2026-04-25T15:49:49.999Z</time></trkpt><trkpt lat="48.57187828605976" lon="-4.4075815534479865"><ele>60.0</ele><time>2026-04-25T15:49:50.999Z</time></trkpt><trkpt lat="48.57178715252923" lon="-4.40758060274568"><ele>60.0</ele><time>2026-04-25T15:49:51.999Z</time></trkpt><trkpt lat="48.571685676918825" lon="-4.407578378351856"><ele>60.0</ele><time>2026-04-25T15:49:52.999Z</time></trkpt><trkpt lat="48.57157570527557" lon="-4.407577691247886"><ele>60.0</ele><time>2026-04-25T15:49:53.999Z</time></trkpt><trkpt lat="48.57145754558308" lon="-4.407577669127047"><ele>60.0</ele><time>2026-04-25T15:49:54.999Z</time></trkpt><trkpt lat="48.571337899213376" lon="-4.407573636196384"><ele>60.0</ele><time>2026-04-25T15:49:55.999Z</time></trkpt><trkpt lat="48.571217855652" lon="-4.407574092766964"><ele>60.4</ele><time>2026-04-25T15:49:56.999Z</time></trkpt><trkpt lat="48.57109884157072" lon="-4.407572137387789"><ele>60.8</ele><time>2026-04-25T15:49:57.999Z</time></trkpt><trkpt lat="48.57098913601314" lon="-4.407568399139818"><ele>61.2</ele><time>2026-04-25T15:49:58.999Z</time></trkpt><trkpt lat="48.57090823342356" lon="-4.407567408983918"><ele>61.6</ele><time>2026-04-25T15:49:59.999Z</time></trkpt><trkpt lat="48.5707716181086" lon="-4.407574888536496"><ele>62.0</ele><time>2026-04-25T15:50:01.999Z</time></trkpt><trkpt lat="48.57069147504924" lon="-4.407578582916357"><ele>62.00000000000001</ele><time>2026-04-25T15:50:02.999Z</time></trkpt><trkpt lat="48.570619823052006" lon="-4.407576514197648"><ele>62.0</ele><time>2026-04-25T15:50:03.999Z</time></trkpt><trkpt lat="48.57054923046397" lon="-4.407572783262289"><ele>62.0</ele><time>2026-04-25T15:50:04.999Z</time></trkpt><trkpt lat="48.57047837351085" lon="-4.407579727273915"><ele>62.0</ele><time>2026-04-25T15:50:05.999Z</time></trkpt><trkpt lat="48.570412741937965" lon="-4.407585363050703"><ele>62.00000000000001</ele><time>2026-04-25T15:50:06.999Z</time></trkpt><trkpt lat="48.57031717686508" lon="-4.407583718228098"><ele>62.0</ele><time>2026-04-25T15:50:08.999Z</time></trkpt><trkpt lat="48.57022908476135" lon="-4.407588190941608"><ele>62.333333333333336</ele><time>2026-04-25T15:50:10.999Z</time></trkpt><trkpt lat="48.570155918823446" lon="-4.407608088705488"><ele>62.66666666666667</ele><time>2026-04-25T15:50:12.999Z</time></trkpt><trkpt lat="48.570094928915545" lon="-4.407569672784418"><ele>63.0</ele><time>2026-04-25T15:50:19.999Z</time></trkpt><trkpt lat="48.57003133699757" lon="-4.407547010351404"><ele>63.33333333333333</ele><time>2026-04-25T15:50:34.998Z</time></trkpt><trkpt lat="48.569898895790374" lon="-4.407503759777206"><ele>63.666666666666664</ele><time>2026-04-25T15:50:36.998Z</time></trkpt><trkpt lat="48.56981731696836" lon="-4.40747447620584"><ele>64.0</ele><time>2026-04-25T15:50:37.998Z</time></trkpt><trkpt lat="48.569728297890826" lon="-4.407415399776622"><ele>64.0</ele><time>2026-04-25T15:50:38.998Z</time></trkpt><trkpt lat="48.56963089744811" lon="-4.407346407412794"><ele>64.0</ele><time>2026-04-25T15:50:39.998Z</time></trkpt><trkpt lat="48.569528321945405" lon="-4.407280189154481"><ele>64.0</ele><time>2026-04-25T15:50:40.998Z</time></trkpt><trkpt lat="48.56941323189863" lon="-4.407206426280563"><ele>64.0</ele><time>2026-04-25T15:50:41.998Z</time></trkpt><trkpt lat="48.569288812906706" lon="-4.407124715234525"><ele>64.0</ele><time>2026-04-25T15:50:42.998Z</time></trkpt><trkpt lat="48.56916276771339" lon="-4.407040421519914"><ele>64.0</ele><time>2026-04-25T15:50:43.998Z</time></trkpt><trkpt lat="48.56902838418981" lon="-4.406957349538192"><ele>64.0</ele><time>2026-04-25T15:50:44.998Z</time></trkpt><trkpt lat="48.5688945225278" lon="-4.406868405349394"><ele>64.0</ele><time>2026-04-25T15:50:45.998Z</time></trkpt><trkpt lat="48.56876519625633" lon="-4.406786467484056"><ele>64.0</ele><time>2026-04-25T15:50:46.998Z</time></trkpt><trkpt lat="48.568647732205456" lon="-4.406706646517036"><ele>64.0</ele><time>2026-04-25T15:50:47.998Z</time></trkpt><trkpt lat="48.56853498260017" lon="-4.406625633897748"><ele>64.0</ele><time>2026-04-25T15:50:48.998Z</time></trkpt><trkpt lat="48.56841550069323" lon="-4.406564089646488"><ele>64.0</ele><time>2026-04-25T15:50:49.998Z</time></trkpt><trkpt lat="48.56830972126942" lon="-4.4064923147731"><ele>64.0</ele><time>2026-04-25T15:50:50.998Z</time></trkpt><trkpt lat="48.568216148520285" lon="-4.406413402327944"><ele>64.0</ele><time>2026-04-25T15:50:51.998Z</time></trkpt><trkpt lat="48.568125904894906" lon="-4.406348396386226"><ele>64.0</ele><time>2026-04-25T15:50:52.998Z</time></trkpt><trkpt lat="48.56804167962351" lon="-4.406305261297408"><ele>64.0</ele><time>2026-04-25T15:50:53.998Z</time></trkpt><trkpt lat="48.56795662124954" lon="-4.406278922353705"><ele>64.0</ele><time>2026-04-25T15:50:54.998Z</time></trkpt><trkpt lat="48.56787620126936" lon="-4.406252171398549"><ele>63.99999999999999</ele><time>2026-04-25T15:50:55.998Z</time></trkpt><trkpt lat="48.56779103057006" lon="-4.406216445029496"><ele>64.0</ele><time>2026-04-25T15:50:56.998Z</time></trkpt><trkpt lat="48.56770716689896" lon="-4.406172253290375"><ele>64.0</ele><time>2026-04-25T15:50:57.998Z</time></trkpt><trkpt lat="48.56762096737458" lon="-4.406128861274942"><ele>64.0</ele><time>2026-04-25T15:50:58.998Z</time></trkpt><trkpt lat="48.56753987974723" lon="-4.406085404255649"><ele>63.99999999999999</ele><time>2026-04-25T15:50:59.998Z</time></trkpt><trkpt lat="48.56745955588642" lon="-4.406049286838878"><ele>64.0</ele><time>2026-04-25T15:51:00.998Z</time></trkpt><trkpt lat="48.567376454183616" lon="-4.40601984303892"><ele>64.0</ele><time>2026-04-25T15:51:01.998Z</time></trkpt><trkpt lat="48.567289433228225" lon="-4.405992356809059"><ele>64.0</ele><time>2026-04-25T15:51:02.998Z</time></trkpt><trkpt lat="48.56719832476959" lon="-4.405977164300574"><ele>64.0</ele><time>2026-04-25T15:51:03.998Z</time></trkpt><trkpt lat="48.56710085131849" lon="-4.40596334014676"><ele>64.0</ele><time>2026-04-25T15:51:04.998Z</time></trkpt><trkpt lat="48.56700064340085" lon="-4.405970580933652"><ele>64.0</ele><time>2026-04-25T15:51:05.998Z</time></trkpt><trkpt lat="48.56691065689377" lon="-4.405993745025197"><ele>63.83333333333333</ele><time>2026-04-25T15:51:06.998Z</time></trkpt><trkpt lat="48.5668256941336" lon="-4.406011454222921"><ele>63.666666666666664</ele><time>2026-04-25T15:51:07.998Z</time></trkpt><trkpt lat="48.56673630880442" lon="-4.4060205096691325"><ele>63.5</ele><time>2026-04-25T15:51:08.998Z</time></trkpt><trkpt lat="48.56664502038406" lon="-4.406031102598382"><ele>63.33333333333333</ele><time>2026-04-25T15:51:09.998Z</time></trkpt><trkpt lat="48.56657137788776" lon="-4.406072174078001"><ele>63.166666666666664</ele><time>2026-04-25T15:51:10.998Z</time></trkpt><trkpt lat="48.56650790230905" lon="-4.4060736288399"><ele>63.0</ele><time>2026-04-25T15:51:11.998Z</time></trkpt><trkpt lat="48.56640228645547" lon="-4.406094605130201"><ele>63.0</ele><time>2026-04-25T15:51:13.998Z</time></trkpt><trkpt lat="48.56632724006944" lon="-4.406127474944988"><ele>63.0</ele><time>2026-04-25T15:51:15.998Z</time></trkpt><trkpt lat="48.56629614177034" lon="-4.406243840457017"><ele>63.0</ele><time>2026-04-25T15:51:18.998Z</time></trkpt><trkpt lat="48.56630665382493" lon="-4.406393580267553"><ele>63.0</ele><time>2026-04-25T15:51:25.998Z</time></trkpt><trkpt lat="48.56632307920196" lon="-4.406488821269435"><ele>63.0</ele><time>2026-04-25T15:51:26.998Z</time></trkpt><trkpt lat="48.56633499042793" lon="-4.406594838418459"><ele>63.0</ele><time>2026-04-25T15:51:27.998Z</time></trkpt><trkpt lat="48.56634832698184" lon="-4.4067158496495695"><ele>63.2</ele><time>2026-04-25T15:51:28.998Z</time></trkpt><trkpt lat="48.56636422594521" lon="-4.406848749501425"><ele>63.4</ele><time>2026-04-25T15:51:29.998Z</time></trkpt><trkpt lat="48.56638135378736" lon="-4.406990128491085"><ele>63.60000000000001</ele><time>2026-04-25T15:51:30.998Z</time></trkpt><trkpt lat="48.566394081378526" lon="-4.4071362659843745"><ele>63.800000000000004</ele><time>2026-04-25T15:51:31.998Z</time></trkpt><trkpt lat="48.56641104023244" lon="-4.407283311852739"><ele>64.0</ele><time>2026-04-25T15:51:32.998Z</time></trkpt><trkpt lat="48.56642639369978" lon="-4.407443951604735"><ele>64.0</ele><time>2026-04-25T15:51:33.998Z</time></trkpt><trkpt lat="48.56644373533649" lon="-4.407607456489922"><ele>64.0</ele><time>2026-04-25T15:51:34.998Z</time></trkpt><trkpt lat="48.566464944802895" lon="-4.407766051256602"><ele>64.0</ele><time>2026-04-25T15:51:35.998Z</time></trkpt><trkpt lat="48.566481507341194" lon="-4.407925053945224"><ele>64.0</ele><time>2026-04-25T15:51:36.998Z</time></trkpt><trkpt lat="48.56649810047413" lon="-4.408067323094648"><ele>64.0</ele><time>2026-04-25T15:51:37.998Z</time></trkpt><trkpt lat="48.56651650990443" lon="-4.4082012067805305"><ele>63.83333333333333</ele><time>2026-04-25T15:51:38.998Z</time></trkpt><trkpt lat="48.56652800474378" lon="-4.408320200345393"><ele>63.666666666666664</ele><time>2026-04-25T15:51:39.998Z</time></trkpt><trkpt lat="48.56654099784336" lon="-4.408435217604283"><ele>63.5</ele><time>2026-04-25T15:51:41.998Z</time></trkpt><trkpt lat="48.56655271421159" lon="-4.408570726353363"><ele>63.33333333333333</ele><time>2026-04-25T15:51:44.998Z</time></trkpt><trkpt lat="48.56656801563362" lon="-4.4086833168417625"><ele>63.166666666666664</ele><time>2026-04-25T15:51:46.997Z</time></trkpt><trkpt lat="48.56658203773479" lon="-4.4088273907541495"><ele>63.0</ele><time>2026-04-25T15:51:48.997Z</time></trkpt><trkpt lat="48.56660215348158" lon="-4.408974055882755"><ele>62.666666666666664</ele><time>2026-04-25T15:51:50.997Z</time></trkpt><trkpt lat="48.5666201851332" lon="-4.409145411964031"><ele>62.33333333333333</ele><time>2026-04-25T15:51:53.997Z</time></trkpt><trkpt lat="48.566636254381216" lon="-4.4092395498478405"><ele>62.0</ele><time>2026-04-25T15:51:54.997Z</time></trkpt><trkpt lat="48.56665826518876" lon="-4.409430504910896"><ele>61.666666666666664</ele><time>2026-04-25T15:51:56.997Z</time></trkpt><trkpt lat="48.56667402990022" lon="-4.409535021750316"><ele>61.33333333333333</ele><time>2026-04-25T15:51:57.997Z</time></trkpt><trkpt lat="48.56668384848188" lon="-4.409630994071511"><ele>61.0</ele><time>2026-04-25T15:51:58.997Z</time></trkpt><trkpt lat="48.56670317815288" lon="-4.409786749115689"><ele>60.99999999999999</ele><time>2026-04-25T15:52:00.997Z</time></trkpt><trkpt lat="48.56669810047559" lon="-4.4098956024788265"><ele>61.0</ele><time>2026-04-25T15:52:02.997Z</time></trkpt><trkpt lat="48.56663088412723" lon="-4.409956888438889"><ele>61.0</ele><time>2026-04-25T15:52:05.997Z</time></trkpt><trkpt lat="48.56650754635538" lon="-4.409925878718294"><ele>61.0</ele><time>2026-04-25T15:52:07.997Z</time></trkpt><trkpt lat="48.56643465812027" lon="-4.4099135486988175"><ele>60.99999999999999</ele><time>2026-04-25T15:52:08.997Z</time></trkpt><trkpt lat="48.56634919118442" lon="-4.409902475040096"><ele>61.0</ele><time>2026-04-25T15:52:09.997Z</time></trkpt><trkpt lat="48.56626078965902" lon="-4.409902475548619"><ele>61.0</ele><time>2026-04-25T15:52:10.997Z</time></trkpt><trkpt lat="48.56617274537462" lon="-4.409914545637759"><ele>60.99999999999999</ele><time>2026-04-25T15:52:11.997Z</time></trkpt><trkpt lat="48.566081390119564" lon="-4.409930133057151"><ele>60.99999999999999</ele><time>2026-04-25T15:52:12.997Z</time></trkpt><trkpt lat="48.56598529811759" lon="-4.409954932352306"><ele>61.0</ele><time>2026-04-25T15:52:13.997Z</time></trkpt><trkpt lat="48.565883209254224" lon="-4.409973099133697"><ele>61.0</ele><time>2026-04-25T15:52:14.997Z</time></trkpt><trkpt lat="48.56577653648743" lon="-4.40998569588401"><ele>61.0</ele><time>2026-04-25T15:52:15.997Z</time></trkpt><trkpt lat="48.56566516724488" lon="-4.409994507166328"><ele>61.0</ele><time>2026-04-25T15:52:16.997Z</time></trkpt><trkpt lat="48.56554850130741" lon="-4.40999644217208"><ele>61.0</ele><time>2026-04-25T15:52:17.997Z</time></trkpt><trkpt lat="48.56542636568627" lon="-4.409996186865644"><ele>61.0</ele><time>2026-04-25T15:52:18.997Z</time></trkpt><trkpt lat="48.56530408593072" lon="-4.40999531817284"><ele>60.75</ele><time>2026-04-25T15:52:19.997Z</time></trkpt><trkpt lat="48.56518629089025" lon="-4.409992206124984"><ele>60.5</ele><time>2026-04-25T15:52:20.997Z</time></trkpt><trkpt lat="48.565059131306676" lon="-4.409992236748069"><ele>60.25</ele><time>2026-04-25T15:52:21.997Z</time></trkpt><trkpt lat="48.5649408543682" lon="-4.40999221184703"><ele>60.0</ele><time>2026-04-25T15:52:22.997Z</time></trkpt><trkpt lat="48.564820588877105" lon="-4.409992841731214"><ele>60.0</ele><time>2026-04-25T15:52:23.997Z</time></trkpt><trkpt lat="48.564694796944025" lon="-4.4099917455992275"><ele>60.0</ele><time>2026-04-25T15:52:24.997Z</time></trkpt><trkpt lat="48.56456897548242" lon="-4.4099918951897426"><ele>60.0</ele><time>2026-04-25T15:52:25.997Z</time></trkpt><trkpt lat="48.56445460613915" lon="-4.409996470637714"><ele>60.0</ele><time>2026-04-25T15:52:26.997Z</time></trkpt><trkpt lat="48.56433706936923" lon="-4.410002107785141"><ele>59.75</ele><time>2026-04-25T15:52:27.997Z</time></trkpt><trkpt lat="48.56421505740043" lon="-4.4099991127594125"><ele>59.5</ele><time>2026-04-25T15:52:28.997Z</time></trkpt><trkpt lat="48.56408870038959" lon="-4.410000326781775"><ele>59.25</ele><time>2026-04-25T15:52:29.997Z</time></trkpt><trkpt lat="48.563956604743765" lon="-4.410000837757299"><ele>59.0</ele><time>2026-04-25T15:52:30.997Z</time></trkpt><trkpt lat="48.563825696083605" lon="-4.410005617019881"><ele>58.5</ele><time>2026-04-25T15:52:31.997Z</time></trkpt><trkpt lat="48.563692591016185" lon="-4.410009077485685"><ele>58.0</ele><time>2026-04-25T15:52:32.997Z</time></trkpt><trkpt lat="48.56355809232519" lon="-4.410011759855017"><ele>57.5</ele><time>2026-04-25T15:52:33.997Z</time></trkpt><trkpt lat="48.56341923481068" lon="-4.4100091794581"><ele>57.0</ele><time>2026-04-25T15:52:34.997Z</time></trkpt><trkpt lat="48.563276939653306" lon="-4.410008059991832"><ele>57.0</ele><time>2026-04-25T15:52:35.997Z</time></trkpt><trkpt lat="48.563140065666715" lon="-4.410008887874096"><ele>57.0</ele><time>2026-04-25T15:52:36.997Z</time></trkpt><trkpt lat="48.563018871313645" lon="-4.410008291258758"><ele>57.0</ele><time>2026-04-25T15:52:37.997Z</time></trkpt><trkpt lat="48.56289762386106" lon="-4.4100045034489055"><ele>57.0</ele><time>2026-04-25T15:52:38.997Z</time></trkpt><trkpt lat="48.56277872521627" lon="-4.410003116045627"><ele>56.5</ele><time>2026-04-25T15:52:39.997Z</time></trkpt><trkpt lat="48.56266459704581" lon="-4.410004511903206"><ele>56.0</ele><time>2026-04-25T15:52:40.997Z</time></trkpt><trkpt lat="48.56256604575851" lon="-4.410012679493793"><ele>55.5</ele><time>2026-04-25T15:52:41.997Z</time></trkpt><trkpt lat="48.56247169772725" lon="-4.410023329831866"><ele>55.0</ele><time>2026-04-25T15:52:42.997Z</time></trkpt><trkpt lat="48.56239896901379" lon="-4.410037093473723"><ele>54.5</ele><time>2026-04-25T15:52:43.997Z</time></trkpt><trkpt lat="48.5623363757483" lon="-4.4100557856798845"><ele>54.0</ele><time>2026-04-25T15:52:44.997Z</time></trkpt><trkpt lat="48.562267880123976" lon="-4.410091869732771"><ele>54.0</ele><time>2026-04-25T15:52:45.997Z</time></trkpt><trkpt lat="48.56219581027964" lon="-4.410143883319261"><ele>54.0</ele><time>2026-04-25T15:52:46.997Z</time></trkpt><trkpt lat="48.56211758168657" lon="-4.410200011667901"><ele>54.0</ele><time>2026-04-25T15:52:47.997Z</time></trkpt><trkpt lat="48.562034953326986" lon="-4.410266561333899"><ele>54.0</ele><time>2026-04-25T15:52:48.997Z</time></trkpt><trkpt lat="48.56196035317926" lon="-4.41032839173339"><ele>54.0</ele><time>2026-04-25T15:52:49.997Z</time></trkpt><trkpt lat="48.56188379964631" lon="-4.410389098608171"><ele>54.0</ele><time>2026-04-25T15:52:50.997Z</time></trkpt><trkpt lat="48.56181799520013" lon="-4.410453631843011"><ele>53.333333333333336</ele><time>2026-04-25T15:52:51.997Z</time></trkpt><trkpt lat="48.561747073861454" lon="-4.4105126426684595"><ele>52.66666666666667</ele><time>2026-04-25T15:52:52.997Z</time></trkpt><trkpt lat="48.56167680560018" lon="-4.410584402005698"><ele>52.0</ele><time>2026-04-25T15:52:53.997Z</time></trkpt><trkpt lat="48.561618022429535" lon="-4.410649917659653"><ele>51.333333333333336</ele><time>2026-04-25T15:52:54.997Z</time></trkpt><trkpt lat="48.56155000987733" lon="-4.410719570655201"><ele>50.66666666666667</ele><time>2026-04-25T15:52:55.997Z</time></trkpt><trkpt lat="48.561486666868426" lon="-4.410796422458745"><ele>50.0</ele><time>2026-04-25T15:52:56.997Z</time></trkpt><trkpt lat="48.561430111522405" lon="-4.410861161466189"><ele>50.0</ele><time>2026-04-25T15:52:57.997Z</time></trkpt><trkpt lat="48.56137885812135" lon="-4.410926492816384"><ele>50.0</ele><time>2026-04-25T15:52:58.997Z</time></trkpt><trkpt lat="48.56132704679567" lon="-4.411000606334199"><ele>50.0</ele><time>2026-04-25T15:52:59.997Z</time></trkpt><trkpt lat="48.561247029535686" lon="-4.411137408454376"><ele>50.0</ele><time>2026-04-25T15:53:01.997Z</time></trkpt><trkpt lat="48.56120910010248" lon="-4.4113194490078405"><ele>50.0</ele><time>2026-04-25T15:53:03.997Z</time></trkpt><trkpt lat="48.56121219460074" lon="-4.411502116808742"><ele>50.00000000000001</ele><time>2026-04-25T15:53:05.997Z</time></trkpt><trkpt lat="48.56120296579764" lon="-4.411666282635475"><ele>50.0</ele><time>2026-04-25T15:53:07.997Z</time></trkpt><trkpt lat="48.56121807584804" lon="-4.411820349287219"><ele>50.0</ele><time>2026-04-25T15:53:09.996Z</time></trkpt><trkpt lat="48.56123967823587" lon="-4.411942897968434"><ele>50.0</ele><time>2026-04-25T15:53:11.996Z</time></trkpt><trkpt lat="48.561203774935514" lon="-4.412057751800197"><ele>50.00000000000001</ele><time>2026-04-25T15:53:13.996Z</time></trkpt><trkpt lat="48.5611408794641" lon="-4.412050851353125"><ele>50.0</ele><time>2026-04-25T15:53:15.996Z</time></trkpt><trkpt lat="48.56107863088642" lon="-4.411958355085588"><ele>46.8</ele><time>2026-04-25T15:53:17.996Z</time></trkpt><trkpt lat="48.56101955068161" lon="-4.4118356303528685"><ele>43.6</ele><time>2026-04-25T15:53:19.996Z</time></trkpt><trkpt lat="48.56095822396076" lon="-4.411733990857742"><ele>40.4</ele><time>2026-04-25T15:53:21.996Z</time></trkpt><trkpt lat="48.56086249720571" lon="-4.411660348573401"><ele>37.2</ele><time>2026-04-25T15:53:23.996Z</time></trkpt><trkpt lat="48.56079637961979" lon="-4.411633818910623"><ele>34.0</ele><time>2026-04-25T15:53:24.996Z</time></trkpt><trkpt lat="48.56068246104112" lon="-4.411628922760014"><ele>34.0</ele><time>2026-04-25T15:53:26.996Z</time></trkpt><trkpt lat="48.56056129255267" lon="-4.411635861221394"><ele>34.0</ele><time>2026-04-25T15:53:28.996Z</time></trkpt><trkpt lat="48.560486224592964" lon="-4.411661553601473"><ele>34.0</ele><time>2026-04-25T15:53:29.996Z</time></trkpt><trkpt lat="48.56042088905082" lon="-4.411686789905607"><ele>34.0</ele><time>2026-04-25T15:53:30.996Z</time></trkpt><trkpt lat="48.560311167139986" lon="-4.411742917288329"><ele>34.0</ele><time>2026-04-25T15:53:32.996Z</time></trkpt><trkpt lat="48.56021029802302" lon="-4.411758731727201"><ele>32.333333333333336</ele><time>2026-04-25T15:53:34.996Z</time></trkpt><trkpt lat="48.560108750954626" lon="-4.411802150501695"><ele>30.666666666666668</ele><time>2026-04-25T15:53:36.996Z</time></trkpt><trkpt lat="48.56004680393101" lon="-4.411834654183085"><ele>29.0</ele><time>2026-04-25T15:53:37.996Z</time></trkpt><trkpt lat="48.55997445429466" lon="-4.411866174682336"><ele>27.333333333333336</ele><time>2026-04-25T15:53:38.996Z</time></trkpt><trkpt lat="48.559874310725846" lon="-4.411903336539082"><ele>25.666666666666668</ele><time>2026-04-25T15:53:40.996Z</time></trkpt><trkpt lat="48.55978459018462" lon="-4.41189352874977"><ele>24.0</ele><time>2026-04-25T15:53:42.996Z</time></trkpt><trkpt lat="48.55969370122231" lon="-4.411842089838205"><ele>24.0</ele><time>2026-04-25T15:53:45.996Z</time></trkpt><trkpt lat="48.55964082408345" lon="-4.411765045576134"><ele>24.0</ele><time>2026-04-25T15:53:47.996Z</time></trkpt><trkpt lat="48.55959339271608" lon="-4.411618017243059"><ele>24.0</ele><time>2026-04-25T15:53:49.996Z</time></trkpt><trkpt lat="48.55958126372669" lon="-4.4114815202222655"><ele>24.0</ele><time>2026-04-25T15:53:51.996Z</time></trkpt><trkpt lat="48.55958434525164" lon="-4.411361911116448"><ele>24.0</ele><time>2026-04-25T15:53:54.996Z</time></trkpt><trkpt lat="48.559559624836226" lon="-4.4112555705776195"><ele>24.0</ele><time>2026-04-25T15:54:05.996Z</time></trkpt><trkpt lat="48.55956514754547" lon="-4.4111350609187046"><ele>24.799999999999997</ele><time>2026-04-25T15:54:26.996Z</time></trkpt><trkpt lat="48.55957339315881" lon="-4.410955453800769"><ele>25.599999999999998</ele><time>2026-04-25T15:54:29.996Z</time></trkpt><trkpt lat="48.5595813181544" lon="-4.410742308326928"><ele>26.4</ele><time>2026-04-25T15:54:31.995Z</time></trkpt><trkpt lat="48.559579904684995" lon="-4.410604639438341"><ele>27.2</ele><time>2026-04-25T15:54:32.995Z</time></trkpt><trkpt lat="48.55958001694114" lon="-4.4104727752033215"><ele>28.0</ele><time>2026-04-25T15:54:33.995Z</time></trkpt><trkpt lat="48.55958228339841" lon="-4.410353844638517"><ele>28.000000000000004</ele><time>2026-04-25T15:54:34.995Z</time></trkpt><trkpt lat="48.55959111455538" lon="-4.410205180022634"><ele>28.0</ele><time>2026-04-25T15:54:36.995Z</time></trkpt><trkpt lat="48.559599983681395" lon="-4.41008504247223"><ele>28.0</ele><time>2026-04-25T15:54:47.995Z</time></trkpt><trkpt lat="48.55959500591461" lon="-4.409912512890837"><ele>28.0</ele><time>2026-04-25T15:54:49.995Z</time></trkpt><trkpt lat="48.55958466340724" lon="-4.409814032139235"><ele>28.000000000000004</ele><time>2026-04-25T15:54:50.995Z</time></trkpt><trkpt lat="48.559575630728176" lon="-4.409709003318106"><ele>28.0</ele><time>2026-04-25T15:54:51.995Z</time></trkpt><trkpt lat="48.559565168886124" lon="-4.409596360615683"><ele>27.833333333333336</ele><time>2026-04-25T15:54:52.995Z</time></trkpt><trkpt lat="48.55955042472914" lon="-4.4094990124376094"><ele>27.666666666666668</ele><time>2026-04-25T15:54:53.995Z</time></trkpt><trkpt lat="48.559532712811375" lon="-4.409398750013692"><ele>27.5</ele><time>2026-04-25T15:54:54.995Z</time></trkpt><trkpt lat="48.55951173663495" lon="-4.40928491755545"><ele>27.333333333333336</ele><time>2026-04-25T15:54:55.995Z</time></trkpt><trkpt lat="48.559489801580206" lon="-4.409158093947458"><ele>27.166666666666668</ele><time>2026-04-25T15:54:56.995Z</time></trkpt><trkpt lat="48.55947442497463" lon="-4.409043352059351"><ele>27.0</ele><time>2026-04-25T15:54:57.995Z</time></trkpt><trkpt lat="48.55943133756102" lon="-4.408871908933872"><ele>28.57142857142857</ele><time>2026-04-25T15:54:59.995Z</time></trkpt><trkpt lat="48.55939810898692" lon="-4.408779071621371"><ele>30.142857142857142</ele><time>2026-04-25T15:55:00.995Z</time></trkpt><trkpt lat="48.559348819094836" lon="-4.408712266588851"><ele>31.714285714285715</ele><time>2026-04-25T15:55:04.995Z</time></trkpt><trkpt lat="48.55928610537323" lon="-4.408668191687181"><ele>33.285714285714285</ele><time>2026-04-25T15:55:07.995Z</time></trkpt><trkpt lat="48.559253405122604" lon="-4.408585910720625"><ele>34.85714285714286</ele><time>2026-04-25T15:55:10.995Z</time></trkpt><trkpt lat="48.559227364716115" lon="-4.408462967807911"><ele>36.42857142857142</ele><time>2026-04-25T15:55:14.995Z</time></trkpt><trkpt lat="48.55915904520783" lon="-4.408443060109306"><ele>38.0</ele><time>2026-04-25T15:55:35.995Z</time></trkpt><trkpt lat="48.559109235281504" lon="-4.408373859359921"><ele>38.0</ele><time>2026-04-25T15:55:41.995Z</time></trkpt><trkpt lat="48.559043841803984" lon="-4.408332854571721"><ele>38.0</ele><time>2026-04-25T15:55:45.995Z</time></trkpt><trkpt lat="48.559107904704334" lon="-4.408335709949282"><ele>38.0</ele><time>2026-04-25T15:56:11.994Z</time></trkpt><trkpt lat="48.55912953364719" lon="-4.408428195156974"><ele>38.0</ele><time>2026-04-25T15:56:14.994Z</time></trkpt><trkpt lat="48.559180783803164" lon="-4.408501113769771"><ele>38.0</ele><time>2026-04-25T15:56:19.994Z</time></trkpt><trkpt lat="48.55921217355822" lon="-4.4084030169028185"><ele>38.0</ele><time>2026-04-25T15:56:22.994Z</time></trkpt><trkpt lat="48.559169519955255" lon="-4.408291176084946"><ele>38.0</ele><time>2026-04-25T15:56:25.994Z</time></trkpt><trkpt lat="48.559130620584504" lon="-4.408174061131095"><ele>38.0</ele><time>2026-04-25T15:56:29.994Z</time></trkpt><trkpt lat="48.55910921126119" lon="-4.408076750253315"><ele>38.0</ele><time>2026-04-25T15:56:32.994Z</time></trkpt><trkpt lat="48.55906578780558" lon="-4.407987877901204"><ele>38.0</ele><time>2026-04-25T15:56:36.994Z</time></trkpt><trkpt lat="48.55902382454972" lon="-4.407892081218383"><ele>38.0</ele><time>2026-04-25T15:56:40.994Z</time></trkpt><trkpt lat="48.559075396792615" lon="-4.4078298198799235"><ele>38.0</ele><time>2026-04-25T15:57:00.994Z</time></trkpt><trkpt lat="48.55902837541798" lon="-4.4076396353134175"><ele>38.0</ele><time>2026-04-25T15:57:54.993Z</time></trkpt><trkpt lat="48.55897044408394" lon="-4.407568967050094"><ele>37.14285714285714</ele><time>2026-04-25T15:57:58.993Z</time></trkpt><trkpt lat="48.5589236615992" lon="-4.407496987914338"><ele>36.28571428571429</ele><time>2026-04-25T15:58:07.993Z</time></trkpt><trkpt lat="48.5588862972172" lon="-4.407404518474769"><ele>35.42857142857143</ele><time>2026-04-25T15:58:15.993Z</time></trkpt><trkpt lat="48.55890375952209" lon="-4.407308693892153"><ele>34.57142857142857</ele><time>2026-04-25T15:59:26.992Z</time></trkpt><trkpt lat="48.55885267898895" lon="-4.407234023444068"><ele>33.71428571428571</ele><time>2026-04-25T15:59:33.992Z</time></trkpt><trkpt lat="48.55883235784509" lon="-4.4071398448147585"><ele>32.857142857142854</ele><time>2026-04-25T16:00:06.991Z</time></trkpt><trkpt lat="48.55879170989072" lon="-4.407053237098905"><ele>32.0</ele><time>2026-04-25T16:00:39.991Z</time></trkpt><trkpt lat="48.558798361706174" lon="-4.407153806479225"><ele>32.0</ele><time>2026-04-25T16:00:47.991Z</time></trkpt><trkpt lat="48.55881881533481" lon="-4.407250638085774"><ele>31.999999999999996</ele><time>2026-04-25T16:00:52.991Z</time></trkpt><trkpt lat="48.55883288525496" lon="-4.407358514139738"><ele>32.0</ele><time>2026-04-25T16:00:58.991Z</time></trkpt><trkpt lat="48.55884142070716" lon="-4.407459912142718"><ele>32.0</ele><time>2026-04-25T16:01:03.991Z</time></trkpt><trkpt lat="48.55886832352669" lon="-4.407550670702914"><ele>31.999999999999996</ele><time>2026-04-25T16:01:15.991Z</time></trkpt><trkpt lat="48.55891938897489" lon="-4.4076193900914955"><ele>32.0</ele><time>2026-04-25T16:01:21.991Z</time></trkpt><trkpt lat="48.55897643316143" lon="-4.407693299617043"><ele>32.0</ele><time>2026-04-25T16:01:25.991Z</time></trkpt><trkpt lat="48.55905858708781" lon="-4.407776565178893"><ele>31.999999999999996</ele><time>2026-04-25T16:01:49.99Z</time></trkpt><trkpt lat="48.55897645342029" lon="-4.407785964031764"><ele>32.0</ele><time>2026-04-25T16:02:27.99Z</time></trkpt><trkpt lat="48.558971049753424" lon="-4.40789264274034"><ele>32.0</ele><time>2026-04-25T16:02:33.99Z</time></trkpt><trkpt lat="48.55904297881912" lon="-4.407966518052233"><ele>32.0</ele><time>2026-04-25T16:02:36.99Z</time></trkpt><trkpt lat="48.55907701301925" lon="-4.408087930426875"><ele>31.999999999999996</ele><time>2026-04-25T16:02:39.99Z</time></trkpt><trkpt lat="48.55911560968944" lon="-4.408180882528816"><ele>32.0</ele><time>2026-04-25T16:02:41.99Z</time></trkpt><trkpt lat="48.559160202889906" lon="-4.408329765429608"><ele>33.0</ele><time>2026-04-25T16:02:43.99Z</time></trkpt><trkpt lat="48.559197863560776" lon="-4.408453064163603"><ele>34.0</ele><time>2026-04-25T16:02:45.99Z</time></trkpt><trkpt lat="48.559228504078966" lon="-4.40854486227352"><ele>35.0</ele><time>2026-04-25T16:02:47.99Z</time></trkpt><trkpt lat="48.55928429693239" lon="-4.4085970309311255"><ele>36.0</ele><time>2026-04-25T16:02:50.989Z</time></trkpt><trkpt lat="48.559303174062705" lon="-4.408489836842389"><ele>37.0</ele><time>2026-04-25T16:02:54.989Z</time></trkpt><trkpt lat="48.559284568383674" lon="-4.408387188336856"><ele>38.0</ele><time>2026-04-25T16:02:55.989Z</time></trkpt><trkpt lat="48.55924917148994" lon="-4.408270747602901"><ele>38.0</ele><time>2026-04-25T16:02:56.989Z</time></trkpt><trkpt lat="48.55921210879357" lon="-4.408121078408537"><ele>38.0</ele><time>2026-04-25T16:02:57.989Z</time></trkpt><trkpt lat="48.55916790017687" lon="-4.407959614040967"><ele>38.0</ele><time>2026-04-25T16:02:58.989Z</time></trkpt><trkpt lat="48.55912567847251" lon="-4.407771532878869"><ele>38.0</ele><time>2026-04-25T16:02:59.989Z</time></trkpt><trkpt lat="48.55908263950144" lon="-4.407604198309949"><ele>36.8</ele><time>2026-04-25T16:03:00.989Z</time></trkpt><trkpt lat="48.55904552669573" lon="-4.407444217574444"><ele>35.599999999999994</ele><time>2026-04-25T16:03:01.989Z</time></trkpt><trkpt lat="48.55901086074677" lon="-4.407299779714333"><ele>34.400000000000006</ele><time>2026-04-25T16:03:02.989Z</time></trkpt><trkpt lat="48.55898459472013" lon="-4.407174380072794"><ele>33.2</ele><time>2026-04-25T16:03:03.989Z</time></trkpt><trkpt lat="48.558957340515" lon="-4.407064475761305"><ele>32.0</ele><time>2026-04-25T16:03:04.989Z</time></trkpt><trkpt lat="48.558918809745684" lon="-4.406851696412635"><ele>31.200000000000003</ele><time>2026-04-25T16:03:06.989Z</time></trkpt><trkpt lat="48.55888456049513" lon="-4.406694913400936"><ele>30.400000000000002</ele><time>2026-04-25T16:03:08.989Z</time></trkpt><trkpt lat="48.55886404061014" lon="-4.406583543145655"><ele>29.599999999999998</ele><time>2026-04-25T16:03:10.989Z</time></trkpt><trkpt lat="48.55881945662784" lon="-4.406508200122823"><ele>28.799999999999997</ele><time>2026-04-25T16:03:14.989Z</time></trkpt><trkpt lat="48.558802755955554" lon="-4.406346388859754"><ele>28.0</ele><time>2026-04-25T16:03:49.989Z</time></trkpt><trkpt lat="48.55876126256089" lon="-4.406215612868761"><ele>27.25</ele><time>2026-04-25T16:03:50.989Z</time></trkpt><trkpt lat="48.55871920557395" lon="-4.406055602695773"><ele>26.5</ele><time>2026-04-25T16:03:51.989Z</time></trkpt><trkpt lat="48.55867055335456" lon="-4.405894206583349"><ele>25.75</ele><time>2026-04-25T16:03:52.989Z</time></trkpt><trkpt lat="48.55863674539156" lon="-4.405712233059171"><ele>25.0</ele><time>2026-04-25T16:03:53.989Z</time></trkpt><trkpt lat="48.558593853951045" lon="-4.405522216980169"><ele>26.500000000000004</ele><time>2026-04-25T16:03:54.989Z</time></trkpt><trkpt lat="48.55855486261974" lon="-4.405349048898186"><ele>28.0</ele><time>2026-04-25T16:03:55.989Z</time></trkpt><trkpt lat="48.55852795669627" lon="-4.405212476570205"><ele>29.5</ele><time>2026-04-25T16:03:56.989Z</time></trkpt><trkpt lat="48.55850737230316" lon="-4.405119330056054"><ele>31.0</ele><time>2026-04-25T16:03:57.989Z</time></trkpt><trkpt lat="48.55846238118112" lon="-4.404980450695231"><ele>32.5</ele><time>2026-04-25T16:03:59.989Z</time></trkpt><trkpt lat="48.55843070058586" lon="-4.40489261545284"><ele>34.0</ele><time>2026-04-25T16:04:00.989Z</time></trkpt><trkpt lat="48.55839765315904" lon="-4.404766543700518"><ele>33.99999999999999</ele><time>2026-04-25T16:04:02.989Z</time></trkpt><trkpt lat="48.558349404479806" lon="-4.404843277082241"><ele>34.0</ele><time>2026-04-25T16:04:26.988Z</time></trkpt><trkpt lat="48.55829474618519" lon="-4.404786774889975"><ele>34.0</ele><time>2026-04-25T16:04:29.988Z</time></trkpt><trkpt lat="48.558286574358306" lon="-4.404684758350828"><ele>34.0</ele><time>2026-04-25T16:04:31.988Z</time></trkpt><trkpt lat="48.55825752278409" lon="-4.404572407721442"><ele>34.0</ele><time>2026-04-25T16:04:34.988Z</time></trkpt><trkpt lat="48.55822510796714" lon="-4.404489700414562"><ele>33.99999999999999</ele><time>2026-04-25T16:04:37.988Z</time></trkpt><trkpt lat="48.55819254294074" lon="-4.4043987978780414"><ele>34.0</ele><time>2026-04-25T16:05:10.988Z</time></trkpt><trkpt lat="48.558162331386136" lon="-4.404304937585459"><ele>33.16666666666667</ele><time>2026-04-25T16:05:12.988Z</time></trkpt><trkpt lat="48.558147533273456" lon="-4.404176702393584"><ele>32.333333333333336</ele><time>2026-04-25T16:05:15.988Z</time></trkpt><trkpt lat="48.55811668647904" lon="-4.404071301693466"><ele>31.5</ele><time>2026-04-25T16:05:18.988Z</time></trkpt><trkpt lat="48.55807632654118" lon="-4.403968187795757"><ele>30.666666666666664</ele><time>2026-04-25T16:05:21.988Z</time></trkpt><trkpt lat="48.55803575794611" lon="-4.403863824484853"><ele>29.833333333333332</ele><time>2026-04-25T16:05:25.988Z</time></trkpt><trkpt lat="48.55798952063077" lon="-4.403792739426378"><ele>29.0</ele><time>2026-04-25T16:05:28.988Z</time></trkpt><trkpt lat="48.55794845177713" lon="-4.4036948832269305"><ele>28.571428571428577</ele><time>2026-04-25T16:05:31.988Z</time></trkpt><trkpt lat="48.55791512927232" lon="-4.403602759876259"><ele>28.142857142857146</ele><time>2026-04-25T16:05:33.988Z</time></trkpt><trkpt lat="48.5578900460503" lon="-4.403514806460865"><ele>27.714285714285715</ele><time>2026-04-25T16:05:35.987Z</time></trkpt><trkpt lat="48.557850282391115" lon="-4.403438299385669"><ele>27.28571428571429</ele><time>2026-04-25T16:05:37.987Z</time></trkpt><trkpt lat="48.55779857947681" lon="-4.403379835246676"><ele>26.85714285714286</ele><time>2026-04-25T16:05:40.987Z</time></trkpt><trkpt lat="48.55772553193458" lon="-4.403351872037556"><ele>26.428571428571427</ele><time>2026-04-25T16:05:43.987Z</time></trkpt><trkpt lat="48.557666395966706" lon="-4.40324896831934"><ele>26.0</ele><time>2026-04-25T16:05:46.987Z</time></trkpt><trkpt lat="48.55763960157798" lon="-4.403145135475586"><ele>27.833333333333332</ele><time>2026-04-25T16:05:48.987Z</time></trkpt><trkpt lat="48.55763806038877" lon="-4.403023596217647"><ele>29.666666666666664</ele><time>2026-04-25T16:05:51.987Z</time></trkpt><trkpt lat="48.5576783654621" lon="-4.402920024179928"><ele>31.5</ele><time>2026-04-25T16:05:53.987Z</time></trkpt><trkpt lat="48.55767127585942" lon="-4.402824893959406"><ele>33.333333333333336</ele><time>2026-04-25T16:05:55.987Z</time></trkpt><trkpt lat="48.55765891481721" lon="-4.402704429595978"><ele>35.16666666666667</ele><time>2026-04-25T16:05:58.987Z</time></trkpt><trkpt lat="48.557652683788426" lon="-4.402603488185321"><ele>37.0</ele><time>2026-04-25T16:06:00.987Z</time></trkpt><trkpt lat="48.55762479367338" lon="-4.4024783652174895"><ele>37.0</ele><time>2026-04-25T16:06:02.987Z</time></trkpt><trkpt lat="48.557555068857404" lon="-4.402354103727672"><ele>37.0</ele><time>2026-04-25T16:06:04.987Z</time></trkpt><trkpt lat="48.557504061293436" lon="-4.402261325957505"><ele>37.0</ele><time>2026-04-25T16:06:06.987Z</time></trkpt><trkpt lat="48.5574502276417" lon="-4.402164526403542"><ele>37.0</ele><time>2026-04-25T16:06:08.987Z</time></trkpt><trkpt lat="48.557398171940264" lon="-4.402061889484318"><ele>37.0</ele><time>2026-04-25T16:06:10.987Z</time></trkpt><trkpt lat="48.55733879403808" lon="-4.401946015733532"><ele>36.800000000000004</ele><time>2026-04-25T16:06:12.987Z</time></trkpt><trkpt lat="48.5572422739851" lon="-4.401808951624859"><ele>36.6</ele><time>2026-04-25T16:06:14.987Z</time></trkpt><trkpt lat="48.55716736670829" lon="-4.4017197938214245"><ele>36.400000000000006</ele><time>2026-04-25T16:06:15.987Z</time></trkpt><trkpt lat="48.55709905548028" lon="-4.401638237898087"><ele>36.2</ele><time>2026-04-25T16:06:16.987Z</time></trkpt><trkpt lat="48.55704957971329" lon="-4.401562994069598"><ele>36.0</ele><time>2026-04-25T16:06:17.987Z</time></trkpt><trkpt lat="48.55697004464972" lon="-4.401475623136628"><ele>36.0</ele><time>2026-04-25T16:06:19.987Z</time></trkpt><trkpt lat="48.55689469215806" lon="-4.401437837972301"><ele>36.0</ele><time>2026-04-25T16:06:21.987Z</time></trkpt><trkpt lat="48.55682034153086" lon="-4.401391008391795"><ele>36.0</ele><time>2026-04-25T16:06:34.987Z</time></trkpt><trkpt lat="48.556731789602914" lon="-4.401450011953132"><ele>36.0</ele><time>2026-04-25T16:06:37.987Z</time></trkpt><trkpt lat="48.556632745729225" lon="-4.401546727879747"><ele>36.0</ele><time>2026-04-25T16:06:39.987Z</time></trkpt><trkpt lat="48.55654399966379" lon="-4.401618897021614"><ele>36.0</ele><time>2026-04-25T16:06:41.987Z</time></trkpt><trkpt lat="48.556479915673776" lon="-4.401651775405037"><ele>36.0</ele><time>2026-04-25T16:06:43.987Z</time></trkpt><trkpt lat="48.55642042069337" lon="-4.401714296976027"><ele>36.0</ele><time>2026-04-25T16:06:46.987Z</time></trkpt><trkpt lat="48.556342111027554" lon="-4.401793021710192"><ele>36.0</ele><time>2026-04-25T16:06:48.987Z</time></trkpt><trkpt lat="48.55627480675045" lon="-4.401857030015738"><ele>36.0</ele><time>2026-04-25T16:06:50.987Z</time></trkpt><trkpt lat="48.55621306256033" lon="-4.401894043728525"><ele>36.0</ele><time>2026-04-25T16:06:52.987Z</time></trkpt><trkpt lat="48.55613180736033" lon="-4.401920889748077"><ele>37.8</ele><time>2026-04-25T16:06:54.987Z</time></trkpt><trkpt lat="48.556053242033514" lon="-4.402000878873625"><ele>39.6</ele><time>2026-04-25T16:06:56.987Z</time></trkpt><trkpt lat="48.55596907524883" lon="-4.402061776780633"><ele>41.4</ele><time>2026-04-25T16:06:58.986Z</time></trkpt><trkpt lat="48.55589359906693" lon="-4.402079170336104"><ele>43.2</ele><time>2026-04-25T16:06:59.986Z</time></trkpt><trkpt lat="48.55580355066294" lon="-4.402132633893694"><ele>45.0</ele><time>2026-04-25T16:07:01.986Z</time></trkpt><trkpt lat="48.555715981424804" lon="-4.402234305612389"><ele>46.166666666666664</ele><time>2026-04-25T16:07:03.986Z</time></trkpt><trkpt lat="48.55564924177067" lon="-4.402334579558108"><ele>47.33333333333333</ele><time>2026-04-25T16:07:05.986Z</time></trkpt><trkpt lat="48.55559557526483" lon="-4.4024053739488735"><ele>48.5</ele><time>2026-04-25T16:07:06.986Z</time></trkpt><trkpt lat="48.555549980839984" lon="-4.402483487593433"><ele>49.666666666666664</ele><time>2026-04-25T16:07:07.986Z</time></trkpt><trkpt lat="48.555508031922294" lon="-4.402554742850171"><ele>50.83333333333333</ele><time>2026-04-25T16:07:08.986Z</time></trkpt><trkpt lat="48.555462909659745" lon="-4.402627963467954"><ele>52.0</ele><time>2026-04-25T16:07:09.986Z</time></trkpt><trkpt lat="48.55538125221011" lon="-4.402750426152939"><ele>52.0</ele><time>2026-04-25T16:07:11.986Z</time></trkpt><trkpt lat="48.55530281746619" lon="-4.402856281244654"><ele>52.0</ele><time>2026-04-25T16:07:13.986Z</time></trkpt><trkpt lat="48.55523872766875" lon="-4.402957754641723"><ele>52.0</ele><time>2026-04-25T16:07:15.986Z</time></trkpt><trkpt lat="48.55515873408836" lon="-4.403050854588287"><ele>52.0</ele><time>2026-04-25T16:07:17.986Z</time></trkpt><trkpt lat="48.55506950991527" lon="-4.403184260394668"><ele>52.0</ele><time>2026-04-25T16:07:19.986Z</time></trkpt><trkpt lat="48.55500867249173" lon="-4.4033110535825974"><ele>52.0</ele><time>2026-04-25T16:07:21.986Z</time></trkpt><trkpt lat="48.5549509839212" lon="-4.403422533216735"><ele>52.0</ele><time>2026-04-25T16:07:23.986Z</time></trkpt><trkpt lat="48.55490807163041" lon="-4.403505815124983"><ele>52.0</ele><time>2026-04-25T16:07:25.986Z</time></trkpt><trkpt lat="48.554872838474715" lon="-4.403615978878406"><ele>52.0</ele><time>2026-04-25T16:07:27.986Z</time></trkpt><trkpt lat="48.554836267663084" lon="-4.40376256785839"><ele>52.0</ele><time>2026-04-25T16:07:29.986Z</time></trkpt><trkpt lat="48.55484308085997" lon="-4.40391546779795"><ele>52.8</ele><time>2026-04-25T16:07:31.986Z</time></trkpt><trkpt lat="48.55483988426357" lon="-4.404067327609431"><ele>53.6</ele><time>2026-04-25T16:07:33.986Z</time></trkpt><trkpt lat="48.55485102310994" lon="-4.404200935324688"><ele>54.39999999999999</ele><time>2026-04-25T16:07:35.986Z</time></trkpt><trkpt lat="48.554877440242265" lon="-4.40433352883262"><ele>55.199999999999996</ele><time>2026-04-25T16:07:37.986Z</time></trkpt><trkpt lat="48.55489028571597" lon="-4.404471653955294"><ele>56.0</ele><time>2026-04-25T16:07:39.986Z</time></trkpt><trkpt lat="48.55489228366161" lon="-4.404641280440269"><ele>56.00000000000001</ele><time>2026-04-25T16:07:41.986Z</time></trkpt><trkpt lat="48.554869483638896" lon="-4.404748469495249"><ele>56.0</ele><time>2026-04-25T16:07:42.986Z</time></trkpt><trkpt lat="48.55484951785798" lon="-4.404853495036602"><ele>56.0</ele><time>2026-04-25T16:07:43.986Z</time></trkpt><trkpt lat="48.554830433076134" lon="-4.404959005418437"><ele>56.0</ele><time>2026-04-25T16:07:44.986Z</time></trkpt><trkpt lat="48.55481281479943" lon="-4.405053529206436"><ele>56.00000000000001</ele><time>2026-04-25T16:07:45.986Z</time></trkpt><trkpt lat="48.554781148550894" lon="-4.4052154535757735"><ele>56.0</ele><time>2026-04-25T16:07:47.986Z</time></trkpt><trkpt lat="48.554761209390456" lon="-4.405318747192133"><ele>56.00000000000001</ele><time>2026-04-25T16:07:49.986Z</time></trkpt><trkpt lat="48.55471564023338" lon="-4.405444048072666"><ele>56.0</ele><time>2026-04-25T16:07:53.001Z</time></trkpt><trkpt lat="48.554629444159666" lon="-4.40554461637612"><ele>56.0</ele><time>2026-04-25T16:07:55.001Z</time></trkpt><trkpt lat="48.55456720828232" lon="-4.405602118217583"><ele>56.0</ele><time>2026-04-25T16:07:56.001Z</time></trkpt><trkpt lat="48.55449642283424" lon="-4.405661981203818"><ele>56.00000000000001</ele><time>2026-04-25T16:07:57.001Z</time></trkpt><trkpt lat="48.55442822656607" lon="-4.405714044922047"><ele>56.0</ele><time>2026-04-25T16:07:58.001Z</time></trkpt><trkpt lat="48.554357625679856" lon="-4.4057788067962145"><ele>55.833333333333336</ele><time>2026-04-25T16:07:59.001Z</time></trkpt><trkpt lat="48.55428193258117" lon="-4.405845906480009"><ele>55.66666666666667</ele><time>2026-04-25T16:08:00.001Z</time></trkpt><trkpt lat="48.554215436898176" lon="-4.40592808718371"><ele>55.5</ele><time>2026-04-25T16:08:01.001Z</time></trkpt><trkpt lat="48.55415723732343" lon="-4.406005033845846"><ele>55.33333333333333</ele><time>2026-04-25T16:08:02.001Z</time></trkpt><trkpt lat="48.554099955537986" lon="-4.4060933858487505"><ele>55.166666666666664</ele><time>2026-04-25T16:08:03.001Z</time></trkpt><trkpt lat="48.55404219518346" lon="-4.406175893998777"><ele>55.0</ele><time>2026-04-25T16:08:04.001Z</time></trkpt><trkpt lat="48.553988917122595" lon="-4.406254075391704"><ele>55.49999999999999</ele><time>2026-04-25T16:08:05.001Z</time></trkpt><trkpt lat="48.55393367957512" lon="-4.406328678000625"><ele>56.0</ele><time>2026-04-25T16:08:06.001Z</time></trkpt><trkpt lat="48.553865829964344" lon="-4.406407951614101"><ele>56.5</ele><time>2026-04-25T16:08:07.001Z</time></trkpt><trkpt lat="48.55379402698929" lon="-4.406484867831374"><ele>57.0</ele><time>2026-04-25T16:08:08.001Z</time></trkpt><trkpt lat="48.55373205755649" lon="-4.406566859950174"><ele>57.49999999999999</ele><time>2026-04-25T16:08:09.001Z</time></trkpt><trkpt lat="48.55368578450271" lon="-4.406639165639063"><ele>58.0</ele><time>2026-04-25T16:08:10.001Z</time></trkpt><trkpt lat="48.55364225894238" lon="-4.406712886666128"><ele>57.99999999999999</ele><time>2026-04-25T16:08:11.001Z</time></trkpt><trkpt lat="48.553594339893536" lon="-4.4067878388589525"><ele>58.0</ele><time>2026-04-25T16:08:12.001Z</time></trkpt><trkpt lat="48.55353710909388" lon="-4.406861139467713"><ele>58.0</ele><time>2026-04-25T16:08:13.001Z</time></trkpt><trkpt lat="48.5534644450644" lon="-4.4069169241552615"><ele>58.0</ele><time>2026-04-25T16:08:14.001Z</time></trkpt><trkpt lat="48.553382762367534" lon="-4.4069718027504425"><ele>57.99999999999999</ele><time>2026-04-25T16:08:15.001Z</time></trkpt><trkpt lat="48.55331765605992" lon="-4.407040592626692"><ele>58.0</ele><time>2026-04-25T16:08:16.001Z</time></trkpt><trkpt lat="48.55324279881215" lon="-4.407121579954082"><ele>58.166666666666664</ele><time>2026-04-25T16:08:17.001Z</time></trkpt><trkpt lat="48.55317441060291" lon="-4.407195902205663"><ele>58.33333333333333</ele><time>2026-04-25T16:08:18.001Z</time></trkpt><trkpt lat="48.55310479569018" lon="-4.4072721277962374"><ele>58.5</ele><time>2026-04-25T16:08:19.001Z</time></trkpt><trkpt lat="48.5530285507045" lon="-4.407344877426717"><ele>58.66666666666667</ele><time>2026-04-25T16:08:20.001Z</time></trkpt><trkpt lat="48.552953080381094" lon="-4.407430396158699"><ele>58.833333333333336</ele><time>2026-04-25T16:08:21.001Z</time></trkpt><trkpt lat="48.55287862474615" lon="-4.407510697907699"><ele>59.0</ele><time>2026-04-25T16:08:22.001Z</time></trkpt><trkpt lat="48.55280553044298" lon="-4.407577047494788"><ele>59.333333333333336</ele><time>2026-04-25T16:08:23.001Z</time></trkpt><trkpt lat="48.55273759601757" lon="-4.407647442502518"><ele>59.66666666666667</ele><time>2026-04-25T16:08:24.001Z</time></trkpt><trkpt lat="48.552663627402026" lon="-4.4077184435339145"><ele>60.0</ele><time>2026-04-25T16:08:25.001Z</time></trkpt><trkpt lat="48.55259756285458" lon="-4.4077899698134795"><ele>60.33333333333333</ele><time>2026-04-25T16:08:26.001Z</time></trkpt><trkpt lat="48.552522143325135" lon="-4.407869656119615"><ele>60.666666666666664</ele><time>2026-04-25T16:08:27.001Z</time></trkpt><trkpt lat="48.55244165626485" lon="-4.407957881342308"><ele>61.0</ele><time>2026-04-25T16:08:28.001Z</time></trkpt><trkpt lat="48.55235497716583" lon="-4.408034282150564"><ele>61.0</ele><time>2026-04-25T16:08:29.001Z</time></trkpt><trkpt lat="48.552281102096174" lon="-4.40811065354394"><ele>60.99999999999999</ele><time>2026-04-25T16:08:30.001Z</time></trkpt><trkpt lat="48.55219757230795" lon="-4.4082021926328485"><ele>60.99999999999999</ele><time>2026-04-25T16:08:31.001Z</time></trkpt><trkpt lat="48.55210401076508" lon="-4.408305713525512"><ele>61.0</ele><time>2026-04-25T16:08:32.001Z</time></trkpt><trkpt lat="48.55199869944611" lon="-4.408400922160406"><ele>61.0</ele><time>2026-04-25T16:08:33.001Z</time></trkpt><trkpt lat="48.55188654743319" lon="-4.408515408341525"><ele>61.25</ele><time>2026-04-25T16:08:34.001Z</time></trkpt><trkpt lat="48.551776829213566" lon="-4.408631675555449"><ele>61.5</ele><time>2026-04-25T16:08:35.001Z</time></trkpt><trkpt lat="48.5516739701984" lon="-4.408750410151086"><ele>61.75</ele><time>2026-04-25T16:08:36.001Z</time></trkpt><trkpt lat="48.551572901122576" lon="-4.408851407863217"><ele>62.0</ele><time>2026-04-25T16:08:37.001Z</time></trkpt><trkpt lat="48.551482060169725" lon="-4.408953582711417"><ele>62.0</ele><time>2026-04-25T16:08:38.001Z</time></trkpt><trkpt lat="48.55139114693382" lon="-4.409047103337613"><ele>62.0</ele><time>2026-04-25T16:08:39.003Z</time></trkpt><trkpt lat="48.551309427586276" lon="-4.409136969160798"><ele>62.0</ele><time>2026-04-25T16:08:40.003Z</time></trkpt><trkpt lat="48.55123329364272" lon="-4.409221479030412"><ele>62.0</ele><time>2026-04-25T16:08:41.003Z</time></trkpt><trkpt lat="48.551159426598645" lon="-4.409296738183382"><ele>62.0</ele><time>2026-04-25T16:08:42.002Z</time></trkpt><trkpt lat="48.55108983276502" lon="-4.409375054688895"><ele>62.00000000000001</ele><time>2026-04-25T16:08:43.003Z</time></trkpt><trkpt lat="48.55101981532963" lon="-4.409444715195354"><ele>62.0</ele><time>2026-04-25T16:08:44.003Z</time></trkpt><trkpt lat="48.550942381545546" lon="-4.4094989554665815"><ele>62.0</ele><time>2026-04-25T16:08:45.002Z</time></trkpt><trkpt lat="48.5508612746261" lon="-4.409557195869139"><ele>62.0</ele><time>2026-04-25T16:08:46.002Z</time></trkpt><trkpt lat="48.5507937801046" lon="-4.409618794976215"><ele>62.00000000000001</ele><time>2026-04-25T16:08:47.002Z</time></trkpt><trkpt lat="48.55073465454841" lon="-4.4096782111903305"><ele>62.0</ele><time>2026-04-25T16:08:48.003Z</time></trkpt><trkpt lat="48.55063871719317" lon="-4.409740296700617"><ele>62.333333333333336</ele><time>2026-04-25T16:08:50.002Z</time></trkpt><trkpt lat="48.55054504533508" lon="-4.409832430729802"><ele>62.66666666666667</ele><time>2026-04-25T16:08:52.002Z</time></trkpt><trkpt lat="48.550443044791116" lon="-4.409887167788958"><ele>63.0</ele><time>2026-04-25T16:08:54.002Z</time></trkpt><trkpt lat="48.550375136771954" lon="-4.4099302326658965"><ele>63.33333333333333</ele><time>2026-04-25T16:08:55.002Z</time></trkpt><trkpt lat="48.55030002372518" lon="-4.409979028533724"><ele>63.666666666666664</ele><time>2026-04-25T16:08:56.002Z</time></trkpt><trkpt lat="48.55023500538363" lon="-4.41000600231801"><ele>64.0</ele><time>2026-04-25T16:08:57.002Z</time></trkpt><trkpt lat="48.55011905431327" lon="-4.41003260967157"><ele>63.99999999999999</ele><time>2026-04-25T16:08:59.002Z</time></trkpt><trkpt lat="48.55003513420102" lon="-4.410030833133709"><ele>64.0</ele><time>2026-04-25T16:09:01.002Z</time></trkpt><trkpt lat="48.54994538832235" lon="-4.410041153004172"><ele>64.0</ele><time>2026-04-25T16:09:04.002Z</time></trkpt><trkpt lat="48.549871680002795" lon="-4.410054159929435"><ele>64.0</ele><time>2026-04-25T16:09:05.002Z</time></trkpt><trkpt lat="48.549793113384695" lon="-4.41007437572908"><ele>63.99999999999999</ele><time>2026-04-25T16:09:06.002Z</time></trkpt><trkpt lat="48.54971528949422" lon="-4.410106314807167"><ele>64.0</ele><time>2026-04-25T16:09:07.002Z</time></trkpt><trkpt lat="48.54963304720587" lon="-4.410131798682108"><ele>64.0</ele><time>2026-04-25T16:09:08.002Z</time></trkpt><trkpt lat="48.54955686986234" lon="-4.410151137543146"><ele>64.0</ele><time>2026-04-25T16:09:09.002Z</time></trkpt><trkpt lat="48.54949236623936" lon="-4.4101694563344696"><ele>64.0</ele><time>2026-04-25T16:09:10.002Z</time></trkpt><trkpt lat="48.549379184008856" lon="-4.410196878222212"><ele>64.0</ele><time>2026-04-25T16:09:12.002Z</time></trkpt><trkpt lat="48.54929144630997" lon="-4.410244571896284"><ele>64.0</ele><time>2026-04-25T16:09:14.002Z</time></trkpt><trkpt lat="48.54923632186821" lon="-4.410371567634029"><ele>63.99999999999999</ele><time>2026-04-25T16:09:16.002Z</time></trkpt><trkpt lat="48.54924977735152" lon="-4.410488575471707"><ele>64.0</ele><time>2026-04-25T16:09:18.002Z</time></trkpt><trkpt lat="48.54926447655847" lon="-4.410618237134482"><ele>64.0</ele><time>2026-04-25T16:09:20.002Z</time></trkpt><trkpt lat="48.54918396917796" lon="-4.410724042793366"><ele>64.0</ele><time>2026-04-25T16:09:23.002Z</time></trkpt><trkpt lat="48.54909013029387" lon="-4.410792604933418"><ele>63.99999999999999</ele><time>2026-04-25T16:09:25.002Z</time></trkpt><trkpt lat="48.54903337986996" lon="-4.410839356136519"><ele>64.0</ele><time>2026-04-25T16:09:26.002Z</time></trkpt><trkpt lat="48.54894510722902" lon="-4.410923599896281"><ele>63.800000000000004</ele><time>2026-04-25T16:09:28.002Z</time></trkpt><trkpt lat="48.548843810212794" lon="-4.411006550519863"><ele>63.60000000000001</ele><time>2026-04-25T16:09:30.002Z</time></trkpt><trkpt lat="48.54878344733011" lon="-4.411055769105673"><ele>63.4</ele><time>2026-04-25T16:09:31.002Z</time></trkpt><trkpt lat="48.54867892595343" lon="-4.4111472651463215"><ele>63.2</ele><time>2026-04-25T16:09:33.002Z</time></trkpt><trkpt lat="48.5485840711343" lon="-4.411227073775567"><ele>63.0</ele><time>2026-04-25T16:09:35.002Z</time></trkpt><trkpt lat="48.54848230952374" lon="-4.411322024320375"><ele>62.75</ele><time>2026-04-25T16:09:37.002Z</time></trkpt><trkpt lat="48.54837558103807" lon="-4.4114010935517625"><ele>62.5</ele><time>2026-04-25T16:09:39.002Z</time></trkpt><trkpt lat="48.548277791728324" lon="-4.411485397141025"><ele>62.25</ele><time>2026-04-25T16:09:41.002Z</time></trkpt><trkpt lat="48.54817736372773" lon="-4.411566484437953"><ele>62.0</ele><time>2026-04-25T16:09:43.002Z</time></trkpt><trkpt lat="48.54808187140454" lon="-4.4116354217451725"><ele>62.0</ele><time>2026-04-25T16:09:45.002Z</time></trkpt><trkpt lat="48.547997886828966" lon="-4.411707777056334"><ele>62.0</ele><time>2026-04-25T16:09:47.002Z</time></trkpt><trkpt lat="48.54790331968639" lon="-4.411782481709099"><ele>62.0</ele><time>2026-04-25T16:09:49.002Z</time></trkpt><trkpt lat="48.54780729589907" lon="-4.411868296741225"><ele>62.0</ele><time>2026-04-25T16:09:51.002Z</time></trkpt><trkpt lat="48.54772675581839" lon="-4.4119354006975025"><ele>62.0</ele><time>2026-04-25T16:09:53.002Z</time></trkpt><trkpt lat="48.54765770586936" lon="-4.411977938460195"><ele>62.00000000000001</ele><time>2026-04-25T16:09:55.002Z</time></trkpt><trkpt lat="48.54757479964827" lon="-4.412048199110177"><ele>62.0</ele><time>2026-04-25T16:09:57.002Z</time></trkpt><trkpt lat="48.54751810721011" lon="-4.412096038778961"><ele>62.0</ele><time>2026-04-25T16:09:58.002Z</time></trkpt><trkpt lat="48.54742338228967" lon="-4.412166915348891"><ele>62.0</ele><time>2026-04-25T16:10:00.002Z</time></trkpt><trkpt lat="48.54735125630163" lon="-4.412226947540471"><ele>62.00000000000001</ele><time>2026-04-25T16:10:02.002Z</time></trkpt><trkpt lat="48.54728867210343" lon="-4.4122431480464455"><ele>62.0</ele><time>2026-04-25T16:10:27.001Z</time></trkpt><trkpt lat="48.54736743381575" lon="-4.412219677749644"><ele>62.0</ele><time>2026-04-25T16:10:45.003Z</time></trkpt><trkpt lat="48.54743144328134" lon="-4.412172948873238"><ele>62.0</ele><time>2026-04-25T16:10:47.002Z</time></trkpt><trkpt lat="48.547523102376815" lon="-4.41209604885771"><ele>62.0</ele><time>2026-04-25T16:10:49.003Z</time></trkpt><trkpt lat="48.54761173142958" lon="-4.412027149907242"><ele>62.0</ele><time>2026-04-25T16:10:51.003Z</time></trkpt><trkpt lat="48.54768552123047" lon="-4.411962026995794"><ele>62.0</ele><time>2026-04-25T16:10:53.003Z</time></trkpt><trkpt lat="48.54776419319744" lon="-4.411894796700407"><ele>62.0</ele><time>2026-04-25T16:10:55.002Z</time></trkpt><trkpt lat="48.547828851236275" lon="-4.411842057272764"><ele>62.0</ele><time>2026-04-25T16:10:57.003Z</time></trkpt><trkpt lat="48.547910020008686" lon="-4.411771451951618"><ele>62.0</ele><time>2026-04-25T16:10:59.003Z</time></trkpt><trkpt lat="48.54801969482677" lon="-4.41168704394418"><ele>62.0</ele><time>2026-04-25T16:11:01.002Z</time></trkpt><trkpt lat="48.54811308161899" lon="-4.411617943991047"><ele>62.0</ele><time>2026-04-25T16:11:03.002Z</time></trkpt><trkpt lat="48.54820229410681" lon="-4.411536401146948"><ele>62.0</ele><time>2026-04-25T16:11:05.002Z</time></trkpt><trkpt lat="48.548302747947844" lon="-4.4114553586544405"><ele>62.0</ele><time>2026-04-25T16:11:07.002Z</time></trkpt><trkpt lat="48.54840267345521" lon="-4.411373401202154"><ele>62.0</ele><time>2026-04-25T16:11:09.002Z</time></trkpt><trkpt lat="48.548493564008595" lon="-4.411297311254758"><ele>62.0</ele><time>2026-04-25T16:11:11.002Z</time></trkpt><trkpt lat="48.54864136458217" lon="-4.411169784440556"><ele>62.25</ele><time>2026-04-25T16:11:14.002Z</time></trkpt><trkpt lat="48.54874943954872" lon="-4.411084320954988"><ele>62.5</ele><time>2026-04-25T16:11:16.002Z</time></trkpt><trkpt lat="48.548847444200675" lon="-4.4110046659797115"><ele>62.75</ele><time>2026-04-25T16:11:18.002Z</time></trkpt><trkpt lat="48.54895196155593" lon="-4.410906536198289"><ele>63.0</ele><time>2026-04-25T16:11:20.002Z</time></trkpt><trkpt lat="48.549057759104485" lon="-4.410820231946343"><ele>63.0</ele><time>2026-04-25T16:11:22.002Z</time></trkpt><trkpt lat="48.54915407613189" lon="-4.410736126468875"><ele>63.0</ele><time>2026-04-25T16:11:24.002Z</time></trkpt><trkpt lat="48.54921736029298" lon="-4.410677788178717"><ele>63.0</ele><time>2026-04-25T16:11:26.002Z</time></trkpt><trkpt lat="48.549262257229714" lon="-4.410609341145899"><ele>63.0</ele><time>2026-04-25T16:11:38.002Z</time></trkpt><trkpt lat="48.54923747864285" lon="-4.4104829150763205"><ele>63.0</ele><time>2026-04-25T16:11:40.002Z</time></trkpt><trkpt lat="48.54921351395861" lon="-4.410370370588622"><ele>63.0</ele><time>2026-04-25T16:11:42.002Z</time></trkpt><trkpt lat="48.5492676201476" lon="-4.41027374810969"><ele>63.2</ele><time>2026-04-25T16:11:44.002Z</time></trkpt><trkpt lat="48.54932683350932" lon="-4.41023318305798"><ele>63.4</ele><time>2026-04-25T16:11:45.002Z</time></trkpt><trkpt lat="48.54944711505958" lon="-4.41018534018101"><ele>63.60000000000001</ele><time>2026-04-25T16:11:47.002Z</time></trkpt><trkpt lat="48.549572068184" lon="-4.410165278325153"><ele>63.800000000000004</ele><time>2026-04-25T16:11:49.002Z</time></trkpt><trkpt lat="48.54964607342694" lon="-4.4101476107873445"><ele>64.0</ele><time>2026-04-25T16:11:50.002Z</time></trkpt><trkpt lat="48.54972428470193" lon="-4.410120697753982"><ele>63.99999999999999</ele><time>2026-04-25T16:11:51.002Z</time></trkpt><trkpt lat="48.54980244196316" lon="-4.410093215177752"><ele>64.0</ele><time>2026-04-25T16:11:52.002Z</time></trkpt><trkpt lat="48.549883422640335" lon="-4.4100708008547045"><ele>64.0</ele><time>2026-04-25T16:11:53.002Z</time></trkpt><trkpt lat="48.54996457630566" lon="-4.410048699131646"><ele>64.0</ele><time>2026-04-25T16:11:54.002Z</time></trkpt><trkpt lat="48.55003410391189" lon="-4.410038969458565"><ele>63.99999999999999</ele><time>2026-04-25T16:11:55.002Z</time></trkpt><trkpt lat="48.5500997646077" lon="-4.410023037323839"><ele>64.0</ele><time>2026-04-25T16:11:56.002Z</time></trkpt><trkpt lat="48.55022514133529" lon="-4.409997288203754"><ele>64.0</ele><time>2026-04-25T16:11:58.002Z</time></trkpt><trkpt lat="48.55029048258881" lon="-4.409968296566927"><ele>63.99999999999999</ele><time>2026-04-25T16:11:59.002Z</time></trkpt><trkpt lat="48.5503664826481" lon="-4.409923803334079"><ele>64.0</ele><time>2026-04-25T16:12:00.002Z</time></trkpt><trkpt lat="48.55044156682363" lon="-4.4098667246305245"><ele>64.0</ele><time>2026-04-25T16:12:01.002Z</time></trkpt><trkpt lat="48.55050994299482" lon="-4.409814972842275"><ele>63.99999999999999</ele><time>2026-04-25T16:12:02.002Z</time></trkpt><trkpt lat="48.550569696256765" lon="-4.409766341668846"><ele>64.0</ele><time>2026-04-25T16:12:03.002Z</time></trkpt><trkpt lat="48.55062371223256" lon="-4.4097158374784255"><ele>64.0</ele><time>2026-04-25T16:12:04.002Z</time></trkpt><trkpt lat="48.550706626375984" lon="-4.409657370277244"><ele>63.666666666666664</ele><time>2026-04-25T16:12:06.002Z</time></trkpt><trkpt lat="48.55082185991307" lon="-4.409582067308575"><ele>63.33333333333333</ele><time>2026-04-25T16:12:08.002Z</time></trkpt><trkpt lat="48.550879170977" lon="-4.409529382252572"><ele>63.0</ele><time>2026-04-25T16:12:09.002Z</time></trkpt><trkpt lat="48.55094006179867" lon="-4.4094829620291085"><ele>62.66666666666667</ele><time>2026-04-25T16:12:10.002Z</time></trkpt><trkpt lat="48.5510062939829" lon="-4.409427646701195"><ele>62.333333333333336</ele><time>2026-04-25T16:12:11.002Z</time></trkpt><trkpt lat="48.551082097258195" lon="-4.409356956808897"><ele>62.0</ele><time>2026-04-25T16:12:12.002Z</time></trkpt><trkpt lat="48.55115970891063" lon="-4.409266518695435"><ele>62.0</ele><time>2026-04-25T16:12:13.002Z</time></trkpt><trkpt lat="48.55122753154382" lon="-4.409189374958848"><ele>62.0</ele><time>2026-04-25T16:12:14.002Z</time></trkpt><trkpt lat="48.55130547611568" lon="-4.4091101908790105"><ele>62.0</ele><time>2026-04-25T16:12:15.002Z</time></trkpt><trkpt lat="48.55139651541556" lon="-4.4090106304785435"><ele>62.0</ele><time>2026-04-25T16:12:16.002Z</time></trkpt><trkpt lat="48.551496982959776" lon="-4.408904245130661"><ele>62.0</ele><time>2026-04-25T16:12:17.002Z</time></trkpt><trkpt lat="48.55160965628099" lon="-4.408787888450449"><ele>62.0</ele><time>2026-04-25T16:12:18.002Z</time></trkpt><trkpt lat="48.55172852640238" lon="-4.4086665213732585"><ele>62.0</ele><time>2026-04-25T16:12:19.002Z</time></trkpt><trkpt lat="48.551841041156" lon="-4.4085493797153"><ele>62.0</ele><time>2026-04-25T16:12:20.002Z</time></trkpt><trkpt lat="48.55195558616795" lon="-4.408438067015207"><ele>62.0</ele><time>2026-04-25T16:12:21.002Z</time></trkpt><trkpt lat="48.55205724128987" lon="-4.4083279226188"><ele>62.0</ele><time>2026-04-25T16:12:22.002Z</time></trkpt><trkpt lat="48.552140828346936" lon="-4.408229604601708"><ele>62.0</ele><time>2026-04-25T16:12:23.002Z</time></trkpt><trkpt lat="48.552208936664584" lon="-4.408148508585866"><ele>62.0</ele><time>2026-04-25T16:12:24.002Z</time></trkpt><trkpt lat="48.5522925916071" lon="-4.408048121187583"><ele>62.0</ele><time>2026-04-25T16:12:26.001Z</time></trkpt><trkpt lat="48.55236651129871" lon="-4.407985105473856"><ele>62.0</ele><time>2026-04-25T16:12:27.001Z</time></trkpt><trkpt lat="48.55242679717297" lon="-4.40791653227553"><ele>62.0</ele><time>2026-04-25T16:12:28.001Z</time></trkpt><trkpt lat="48.55250109281742" lon="-4.407834249089809"><ele>62.0</ele><time>2026-04-25T16:12:29.001Z</time></trkpt><trkpt lat="48.552600268501756" lon="-4.4077323374540525"><ele>62.0</ele><time>2026-04-25T16:12:30.001Z</time></trkpt><trkpt lat="48.55267881896889" lon="-4.407638518495057"><ele>62.0</ele><time>2026-04-25T16:12:31.001Z</time></trkpt><trkpt lat="48.5527640346567" lon="-4.407550542336599"><ele>62.0</ele><time>2026-04-25T16:12:32.001Z</time></trkpt><trkpt lat="48.5528581456215" lon="-4.40745181634284"><ele>61.400000000000006</ele><time>2026-04-25T16:12:33.001Z</time></trkpt><trkpt lat="48.55295033009171" lon="-4.407364499703576"><ele>60.800000000000004</ele><time>2026-04-25T16:12:34.001Z</time></trkpt><trkpt lat="48.55302582945405" lon="-4.407285320939244"><ele>60.2</ele><time>2026-04-25T16:12:35.001Z</time></trkpt><trkpt lat="48.553093771927195" lon="-4.4072237066227125"><ele>59.6</ele><time>2026-04-25T16:12:36.001Z</time></trkpt><trkpt lat="48.55319238724414" lon="-4.407128342798361"><ele>59.0</ele><time>2026-04-25T16:12:38.001Z</time></trkpt><trkpt lat="48.55325032292166" lon="-4.40706924087744"><ele>59.0</ele><time>2026-04-25T16:12:39.001Z</time></trkpt><trkpt lat="48.553304977421" lon="-4.407020735301197"><ele>59.00000000000001</ele><time>2026-04-25T16:12:40.001Z</time></trkpt><trkpt lat="48.55339745279564" lon="-4.406949375091443"><ele>59.00000000000001</ele><time>2026-04-25T16:12:42.001Z</time></trkpt><trkpt lat="48.55355109141155" lon="-4.407096092497305"><ele>59.0</ele><time>2026-04-25T16:12:55.003Z</time></trkpt><trkpt lat="48.55355339881707" lon="-4.40722477219217"><ele>59.0</ele><time>2026-04-25T16:12:56.003Z</time></trkpt><trkpt lat="48.55355883809344" lon="-4.407375582846299"><ele>59.0</ele><time>2026-04-25T16:12:57.003Z</time></trkpt><trkpt lat="48.55356340758514" lon="-4.407533591106503"><ele>59.00000000000001</ele><time>2026-04-25T16:12:58.003Z</time></trkpt><trkpt lat="48.55356828194237" lon="-4.4076767130929975"><ele>59.00000000000001</ele><time>2026-04-25T16:12:59.003Z</time></trkpt><trkpt lat="48.55356762742311" lon="-4.407810255557701"><ele>59.0</ele><time>2026-04-25T16:13:00.003Z</time></trkpt><trkpt lat="48.553565481721904" lon="-4.407958116827017"><ele>59.0</ele><time>2026-04-25T16:13:01.003Z</time></trkpt><trkpt lat="48.553568079308754" lon="-4.408114112544318"><ele>59.5</ele><time>2026-04-25T16:13:02.003Z</time></trkpt><trkpt lat="48.55357587086714" lon="-4.408287185940803"><ele>60.0</ele><time>2026-04-25T16:13:03.003Z</time></trkpt><trkpt lat="48.55359263949289" lon="-4.408455817788747"><ele>60.5</ele><time>2026-04-25T16:13:04.003Z</time></trkpt><trkpt lat="48.55360446279417" lon="-4.408625076544364"><ele>61.0</ele><time>2026-04-25T16:13:05.003Z</time></trkpt><trkpt lat="48.55359985829002" lon="-4.408799667045051"><ele>60.75</ele><time>2026-04-25T16:13:06.003Z</time></trkpt><trkpt lat="48.55357085031569" lon="-4.4089843690218045"><ele>60.5</ele><time>2026-04-25T16:13:07.003Z</time></trkpt><trkpt lat="48.553546944550895" lon="-4.409162226682424"><ele>60.25</ele><time>2026-04-25T16:13:08.003Z</time></trkpt><trkpt lat="48.553516903656906" lon="-4.4093476029675776"><ele>60.0</ele><time>2026-04-25T16:13:09.003Z</time></trkpt><trkpt lat="48.553482555366415" lon="-4.4095269461883655"><ele>60.25</ele><time>2026-04-25T16:13:10.003Z</time></trkpt><trkpt lat="48.553446476409775" lon="-4.409719498946933"><ele>60.5</ele><time>2026-04-25T16:13:11.003Z</time></trkpt><trkpt lat="48.55340893229485" lon="-4.4099177202725315"><ele>60.75</ele><time>2026-04-25T16:13:12.003Z</time></trkpt><trkpt lat="48.553372123779496" lon="-4.4101024802370015"><ele>61.0</ele><time>2026-04-25T16:13:13.003Z</time></trkpt><trkpt lat="48.55333803136466" lon="-4.410261971133347"><ele>60.99999999999999</ele><time>2026-04-25T16:13:14.003Z</time></trkpt><trkpt lat="48.553310018307336" lon="-4.4104132626618044"><ele>61.0</ele><time>2026-04-25T16:13:15.003Z</time></trkpt><trkpt lat="48.55327974825648" lon="-4.410545129689103"><ele>61.0</ele><time>2026-04-25T16:13:16.003Z</time></trkpt><trkpt lat="48.55325052874857" lon="-4.4106486675101"><ele>61.0</ele><time>2026-04-25T16:13:17.003Z</time></trkpt><trkpt lat="48.553218536658314" lon="-4.410769818399708"><ele>60.99999999999999</ele><time>2026-04-25T16:13:19.003Z</time></trkpt><trkpt lat="48.55318751556941" lon="-4.41087234835412"><ele>61.0</ele><time>2026-04-25T16:13:22.003Z</time></trkpt><trkpt lat="48.55312419759561" lon="-4.41098454180225"><ele>61.0</ele><time>2026-04-25T16:13:24.003Z</time></trkpt><trkpt lat="48.553037664801984" lon="-4.411092651840317"><ele>60.99999999999999</ele><time>2026-04-25T16:13:26.003Z</time></trkpt><trkpt lat="48.55294072984046" lon="-4.4111852060692405"><ele>60.99999999999999</ele><time>2026-04-25T16:13:28.003Z</time></trkpt><trkpt lat="48.55287780829128" lon="-4.411254030895098"><ele>61.0</ele><time>2026-04-25T16:13:29.003Z</time></trkpt><trkpt lat="48.552805020342525" lon="-4.4113080864383365"><ele>61.0</ele><time>2026-04-25T16:13:30.003Z</time></trkpt><trkpt lat="48.55272114688043" lon="-4.411382419297446"><ele>61.25</ele><time>2026-04-25T16:13:31.003Z</time></trkpt><trkpt lat="48.55263204800575" lon="-4.411466302916933"><ele>61.5</ele><time>2026-04-25T16:13:32.003Z</time></trkpt><trkpt lat="48.55254430034985" lon="-4.4115639713580705"><ele>61.75</ele><time>2026-04-25T16:13:33.003Z</time></trkpt><trkpt lat="48.552448175014305" lon="-4.4116743064485995"><ele>62.0</ele><time>2026-04-25T16:13:34.003Z</time></trkpt><trkpt lat="48.5523438178799" lon="-4.411799910183943"><ele>62.0</ele><time>2026-04-25T16:13:35.003Z</time></trkpt><trkpt lat="48.55224255073639" lon="-4.411951083944751"><ele>62.0</ele><time>2026-04-25T16:13:36.003Z</time></trkpt><trkpt lat="48.55216126735336" lon="-4.4120950715994285"><ele>62.0</ele><time>2026-04-25T16:13:37.003Z</time></trkpt><trkpt lat="48.55208661678482" lon="-4.412237133090812"><ele>62.0</ele><time>2026-04-25T16:13:38.003Z</time></trkpt><trkpt lat="48.55202359628743" lon="-4.412395212903064"><ele>62.0</ele><time>2026-04-25T16:13:39.003Z</time></trkpt><trkpt lat="48.55198612271133" lon="-4.41256765651808"><ele>62.0</ele><time>2026-04-25T16:13:40.003Z</time></trkpt><trkpt lat="48.55197501378032" lon="-4.412741794573983"><ele>62.0</ele><time>2026-04-25T16:13:41.003Z</time></trkpt><trkpt lat="48.551981606458725" lon="-4.412919868612632"><ele>62.0</ele><time>2026-04-25T16:13:42.003Z</time></trkpt><trkpt lat="48.55199049518456" lon="-4.413073262494786"><ele>62.2</ele><time>2026-04-25T16:13:43.003Z</time></trkpt><trkpt lat="48.5519833826482" lon="-4.41321498104131"><ele>62.400000000000006</ele><time>2026-04-25T16:13:44.003Z</time></trkpt><trkpt lat="48.55196930281697" lon="-4.413363765756005"><ele>62.599999999999994</ele><time>2026-04-25T16:13:45.003Z</time></trkpt><trkpt lat="48.551954618120696" lon="-4.413524521344442"><ele>62.8</ele><time>2026-04-25T16:13:46.003Z</time></trkpt><trkpt lat="48.55192712229991" lon="-4.4136781500717355"><ele>63.0</ele><time>2026-04-25T16:13:47.002Z</time></trkpt><trkpt lat="48.55190031142339" lon="-4.413821175005972"><ele>63.4</ele><time>2026-04-25T16:13:48.002Z</time></trkpt><trkpt lat="48.55187608159081" lon="-4.413967060837363"><ele>63.8</ele><time>2026-04-25T16:13:49.002Z</time></trkpt><trkpt lat="48.55185072950165" lon="-4.414107815988395"><ele>64.2</ele><time>2026-04-25T16:13:50.002Z</time></trkpt><trkpt lat="48.551814070651595" lon="-4.4142412187940625"><ele>64.6</ele><time>2026-04-25T16:13:51.002Z</time></trkpt><trkpt lat="48.55178102074862" lon="-4.414375315273329"><ele>65.0</ele><time>2026-04-25T16:13:52.002Z</time></trkpt><trkpt lat="48.551744414714356" lon="-4.414491758463833"><ele>65.0</ele><time>2026-04-25T16:13:53.002Z</time></trkpt><trkpt lat="48.551706900019575" lon="-4.414599677279477"><ele>65.0</ele><time>2026-04-25T16:13:54.002Z</time></trkpt><trkpt lat="48.551664639099876" lon="-4.414711841068018"><ele>65.0</ele><time>2026-04-25T16:13:55.002Z</time></trkpt><trkpt lat="48.55161529853443" lon="-4.414812424168879"><ele>65.0</ele><time>2026-04-25T16:13:56.002Z</time></trkpt><trkpt lat="48.551562577552" lon="-4.414892996536168"><ele>65.0</ele><time>2026-04-25T16:13:57.002Z</time></trkpt><trkpt lat="48.55151196904851" lon="-4.414978806803976"><ele>65.0</ele><time>2026-04-25T16:13:58.002Z</time></trkpt><trkpt lat="48.55147296310709" lon="-4.415091087712704"><ele>65.0</ele><time>2026-04-25T16:13:59.002Z</time></trkpt><trkpt lat="48.55146497407657" lon="-4.415236241920821"><ele>65.0</ele><time>2026-04-25T16:14:00.002Z</time></trkpt><trkpt lat="48.55147611147504" lon="-4.4153855778508495"><ele>65.0</ele><time>2026-04-25T16:14:01.002Z</time></trkpt><trkpt lat="48.55150814433638" lon="-4.41552603902598"><ele>65.0</ele><time>2026-04-25T16:14:02.002Z</time></trkpt><trkpt lat="48.55156452085689" lon="-4.41563333628064"><ele>65.0</ele><time>2026-04-25T16:14:03.002Z</time></trkpt><trkpt lat="48.551602991837804" lon="-4.415740626754762"><ele>65.0</ele><time>2026-04-25T16:14:04.002Z</time></trkpt><trkpt lat="48.551635584400714" lon="-4.415847036883184"><ele>65.0</ele><time>2026-04-25T16:14:05.002Z</time></trkpt><trkpt lat="48.551675765371634" lon="-4.415959130927153"><ele>65.0</ele><time>2026-04-25T16:14:06.002Z</time></trkpt><trkpt lat="48.55172014120372" lon="-4.416074479340243"><ele>65.0</ele><time>2026-04-25T16:14:07.002Z</time></trkpt><trkpt lat="48.551753284192756" lon="-4.416179398271071"><ele>65.0</ele><time>2026-04-25T16:14:08.002Z</time></trkpt><trkpt lat="48.551788706970555" lon="-4.416262801440753"><ele>65.0</ele><time>2026-04-25T16:14:09.002Z</time></trkpt><trkpt lat="48.55182958589563" lon="-4.416358325451197"><ele>65.0</ele><time>2026-04-25T16:14:10.002Z</time></trkpt><trkpt lat="48.551880218815036" lon="-4.416464973774987"><ele>65.0</ele><time>2026-04-25T16:14:11.002Z</time></trkpt><trkpt lat="48.55193327031736" lon="-4.41658161629849"><ele>65.0</ele><time>2026-04-25T16:14:12.002Z</time></trkpt><trkpt lat="48.55198317777979" lon="-4.416697496166661"><ele>65.0</ele><time>2026-04-25T16:14:13.002Z</time></trkpt><trkpt lat="48.552035140899704" lon="-4.416803231287516"><ele>65.0</ele><time>2026-04-25T16:14:14.002Z</time></trkpt><trkpt lat="48.552081473914235" lon="-4.416891132400724"><ele>65.0</ele><time>2026-04-25T16:14:15.002Z</time></trkpt><trkpt lat="48.552131997518735" lon="-4.417001556888787"><ele>65.0</ele><time>2026-04-25T16:14:17.002Z</time></trkpt><trkpt lat="48.55216544308708" lon="-4.417085685403914"><ele>65.0</ele><time>2026-04-25T16:14:43.002Z</time></trkpt><trkpt lat="48.55213488527276" lon="-4.416992982518607"><ele>65.0</ele><time>2026-04-25T16:19:05.002Z</time></trkpt><trkpt lat="48.55207445270827" lon="-4.416866039043524"><ele>65.0</ele><time>2026-04-25T16:19:08.002Z</time></trkpt><trkpt lat="48.55202935291154" lon="-4.416784536873071"><ele>65.0</ele><time>2026-04-25T16:19:10.003Z</time></trkpt><trkpt lat="48.55197278263548" lon="-4.4166723644232135"><ele>65.0</ele><time>2026-04-25T16:19:12.003Z</time></trkpt><trkpt lat="48.551904108576494" lon="-4.416531662014314"><ele>65.0</ele><time>2026-04-25T16:19:14.003Z</time></trkpt><trkpt lat="48.55186560510221" lon="-4.416436135793244"><ele>65.0</ele><time>2026-04-25T16:19:16.003Z</time></trkpt><trkpt lat="48.551814962041774" lon="-4.416337450554489"><ele>65.0</ele><time>2026-04-25T16:19:18.004Z</time></trkpt><trkpt lat="48.55177039844835" lon="-4.4162097109077845"><ele>65.0</ele><time>2026-04-25T16:19:20.004Z</time></trkpt><trkpt lat="48.55172702480064" lon="-4.416119809623634"><ele>65.0</ele><time>2026-04-25T16:19:22.004Z</time></trkpt><trkpt lat="48.551678493411444" lon="-4.4159940199254635"><ele>65.0</ele><time>2026-04-25T16:19:24.004Z</time></trkpt><trkpt lat="48.55164794323944" lon="-4.415893694062943"><ele>65.0</ele><time>2026-04-25T16:19:25.004Z</time></trkpt><trkpt lat="48.55161199970137" lon="-4.415798867490916"><ele>65.0</ele><time>2026-04-25T16:19:26.004Z</time></trkpt><trkpt lat="48.551561722110996" lon="-4.415669509195105"><ele>65.0</ele><time>2026-04-25T16:19:28.004Z</time></trkpt><trkpt lat="48.55150458049919" lon="-4.415513689220872"><ele>65.0</ele><time>2026-04-25T16:19:30.004Z</time></trkpt><trkpt lat="48.55148123511011" lon="-4.415417399357154"><ele>65.0</ele><time>2026-04-25T16:19:32.004Z</time></trkpt><trkpt lat="48.55145567080798" lon="-4.415310659754732"><ele>65.0</ele><time>2026-04-25T16:19:34.004Z</time></trkpt><trkpt lat="48.551442403696385" lon="-4.415173030905802"><ele>65.0</ele><time>2026-04-25T16:19:36.004Z</time></trkpt><trkpt lat="48.5514846085658" lon="-4.4150129732862595"><ele>65.0</ele><time>2026-04-25T16:19:38.004Z</time></trkpt><trkpt lat="48.5515210474644" lon="-4.414932318795419"><ele>65.0</ele><time>2026-04-25T16:19:39.004Z</time></trkpt><trkpt lat="48.551572675300626" lon="-4.414839190064392"><ele>65.0</ele><time>2026-04-25T16:19:40.004Z</time></trkpt><trkpt lat="48.5516200270522" lon="-4.4147569774496915"><ele>65.0</ele><time>2026-04-25T16:19:41.004Z</time></trkpt><trkpt lat="48.55165930654868" lon="-4.414679756472066"><ele>65.0</ele><time>2026-04-25T16:19:42.004Z</time></trkpt><trkpt lat="48.55171359119399" lon="-4.414546556534029"><ele>65.0</ele><time>2026-04-25T16:19:44.003Z</time></trkpt><trkpt lat="48.55174141258026" lon="-4.414446647045088"><ele>65.0</ele><time>2026-04-25T16:19:46.003Z</time></trkpt><trkpt lat="48.551773468239794" lon="-4.4143520802234875"><ele>65.0</ele><time>2026-04-25T16:19:48.003Z</time></trkpt><trkpt lat="48.55179039180774" lon="-4.414229694597006"><ele>65.0</ele><time>2026-04-25T16:19:57.003Z</time></trkpt><trkpt lat="48.55181476308463" lon="-4.414094979729427"><ele>65.0</ele><time>2026-04-25T16:19:59.003Z</time></trkpt><trkpt lat="48.551854902923516" lon="-4.413950816822581"><ele>65.0</ele><time>2026-04-25T16:20:01.003Z</time></trkpt><trkpt lat="48.551881677946845" lon="-4.41379931584637"><ele>64.6</ele><time>2026-04-25T16:20:03.003Z</time></trkpt><trkpt lat="48.55190554102092" lon="-4.4136454477036375"><ele>64.2</ele><time>2026-04-25T16:20:05.003Z</time></trkpt><trkpt lat="48.5519221995054" lon="-4.413524644943034"><ele>63.8</ele><time>2026-04-25T16:20:07.003Z</time></trkpt><trkpt lat="48.551941098726495" lon="-4.4133911142862345"><ele>63.4</ele><time>2026-04-25T16:20:09.003Z</time></trkpt><trkpt lat="48.55194546186576" lon="-4.413232781631999"><ele>63.0</ele><time>2026-04-25T16:20:11.003Z</time></trkpt><trkpt lat="48.551958027107716" lon="-4.413112200742672"><ele>63.0</ele><time>2026-04-25T16:20:13.003Z</time></trkpt><trkpt lat="48.55196645925772" lon="-4.413010746702732"><ele>63.0</ele><time>2026-04-25T16:20:15.003Z</time></trkpt><trkpt lat="48.55198004880435" lon="-4.412874379039193"><ele>63.0</ele><time>2026-04-25T16:20:41.003Z</time></trkpt><trkpt lat="48.55197608747489" lon="-4.412744547197377"><ele>63.0</ele><time>2026-04-25T16:20:43.003Z</time></trkpt><trkpt lat="48.55198272001184" lon="-4.412629064668992"><ele>63.0</ele><time>2026-04-25T16:20:45.003Z</time></trkpt><trkpt lat="48.55199624434218" lon="-4.412504512520176"><ele>63.0</ele><time>2026-04-25T16:20:47.003Z</time></trkpt><trkpt lat="48.55203439115328" lon="-4.412346093127886"><ele>62.833333333333336</ele><time>2026-04-25T16:20:49.003Z</time></trkpt><trkpt lat="48.552067852349765" lon="-4.412250924992262"><ele>62.66666666666667</ele><time>2026-04-25T16:20:50.003Z</time></trkpt><trkpt lat="48.55211286873775" lon="-4.4121529979063805"><ele>62.5</ele><time>2026-04-25T16:20:51.003Z</time></trkpt><trkpt lat="48.55215328362581" lon="-4.41207715180801"><ele>62.333333333333336</ele><time>2026-04-25T16:20:52.003Z</time></trkpt><trkpt lat="48.552243314528084" lon="-4.411929691520446"><ele>62.16666666666667</ele><time>2026-04-25T16:20:54.003Z</time></trkpt><trkpt lat="48.55230032666863" lon="-4.411830772970583"><ele>62.0</ele><time>2026-04-25T16:20:55.003Z</time></trkpt><trkpt lat="48.5523697940537" lon="-4.411728917617946"><ele>62.0</ele><time>2026-04-25T16:20:56.003Z</time></trkpt><trkpt lat="48.552451770943385" lon="-4.411624647072517"><ele>62.0</ele><time>2026-04-25T16:20:57.003Z</time></trkpt><trkpt lat="48.552548880895486" lon="-4.411519653054577"><ele>62.0</ele><time>2026-04-25T16:20:58.003Z</time></trkpt><trkpt lat="48.552643027800215" lon="-4.411431722863421"><ele>62.0</ele><time>2026-04-25T16:20:59.003Z</time></trkpt><trkpt lat="48.55272395241792" lon="-4.411353972302488"><ele>62.0</ele><time>2026-04-25T16:21:00.003Z</time></trkpt><trkpt lat="48.55280395578658" lon="-4.411277094699019"><ele>61.833333333333336</ele><time>2026-04-25T16:21:01.003Z</time></trkpt><trkpt lat="48.55288321829952" lon="-4.41120150625487"><ele>61.66666666666667</ele><time>2026-04-25T16:21:02.003Z</time></trkpt><trkpt lat="48.552961328776426" lon="-4.411132756947559"><ele>61.5</ele><time>2026-04-25T16:21:03.003Z</time></trkpt><trkpt lat="48.55303475700082" lon="-4.4110629901269665"><ele>61.33333333333333</ele><time>2026-04-25T16:21:04.003Z</time></trkpt><trkpt lat="48.55309962778439" lon="-4.410995975798008"><ele>61.166666666666664</ele><time>2026-04-25T16:21:05.003Z</time></trkpt><trkpt lat="48.5531546548982" lon="-4.410912944929662"><ele>61.0</ele><time>2026-04-25T16:21:06.003Z</time></trkpt><trkpt lat="48.55319890002583" lon="-4.410821741985248"><ele>61.0</ele><time>2026-04-25T16:21:07.002Z</time></trkpt><trkpt lat="48.55323249441615" lon="-4.410704424575016"><ele>60.99999999999999</ele><time>2026-04-25T16:21:08.002Z</time></trkpt><trkpt lat="48.55325213442282" lon="-4.410576303201977"><ele>60.99999999999999</ele><time>2026-04-25T16:21:09.002Z</time></trkpt><trkpt lat="48.55328438019939" lon="-4.410426115657477"><ele>61.0</ele><time>2026-04-25T16:21:10.002Z</time></trkpt><trkpt lat="48.55331801813968" lon="-4.4102872381132805"><ele>61.0</ele><time>2026-04-25T16:21:11.002Z</time></trkpt><trkpt lat="48.55334594084054" lon="-4.410176003523069"><ele>61.0</ele><time>2026-04-25T16:21:12.002Z</time></trkpt><trkpt lat="48.55336910884949" lon="-4.410068225988702"><ele>60.99999999999999</ele><time>2026-04-25T16:21:13.002Z</time></trkpt><trkpt lat="48.55339097132796" lon="-4.409940367937558"><ele>60.99999999999999</ele><time>2026-04-25T16:21:14.002Z</time></trkpt><trkpt lat="48.55341982151128" lon="-4.409801148335702"><ele>61.0</ele><time>2026-04-25T16:21:15.004Z</time></trkpt><trkpt lat="48.55344698540691" lon="-4.409641185283744"><ele>61.0</ele><time>2026-04-25T16:21:16.003Z</time></trkpt><trkpt lat="48.55347832419906" lon="-4.409484080724784"><ele>61.0</ele><time>2026-04-25T16:21:17.003Z</time></trkpt><trkpt lat="48.553508262683444" lon="-4.409335912869511"><ele>60.99999999999999</ele><time>2026-04-25T16:21:18.004Z</time></trkpt><trkpt lat="48.55352955062305" lon="-4.409201375974738"><ele>60.99999999999999</ele><time>2026-04-25T16:21:19.004Z</time></trkpt><trkpt lat="48.55355226971959" lon="-4.409061800060017"><ele>61.0</ele><time>2026-04-25T16:21:20.004Z</time></trkpt><trkpt lat="48.55357242389508" lon="-4.40890880116393"><ele>61.0</ele><time>2026-04-25T16:21:21.004Z</time></trkpt><trkpt lat="48.55358183897683" lon="-4.408741969616186"><ele>61.0</ele><time>2026-04-25T16:21:22.003Z</time></trkpt><trkpt lat="48.55358336922128" lon="-4.408568036017176"><ele>60.99999999999999</ele><time>2026-04-25T16:21:23.003Z</time></trkpt><trkpt lat="48.55357406290011" lon="-4.408398930385686"><ele>60.99999999999999</ele><time>2026-04-25T16:21:24.004Z</time></trkpt><trkpt lat="48.55356127415165" lon="-4.408232402467078"><ele>61.0</ele><time>2026-04-25T16:21:25.004Z</time></trkpt><trkpt lat="48.55356012592554" lon="-4.408089466403012"><ele>61.0</ele><time>2026-04-25T16:21:26.004Z</time></trkpt><trkpt lat="48.553559157359196" lon="-4.407950682369575"><ele>60.666666666666664</ele><time>2026-04-25T16:21:27.003Z</time></trkpt><trkpt lat="48.553557433132426" lon="-4.40780459959064"><ele>60.33333333333333</ele><time>2026-04-25T16:21:28.004Z</time></trkpt><trkpt lat="48.55355640845529" lon="-4.4076570334584835"><ele>60.0</ele><time>2026-04-25T16:21:29.004Z</time></trkpt><trkpt lat="48.55355501912025" lon="-4.4075208283592335"><ele>59.66666666666667</ele><time>2026-04-25T16:21:30.004Z</time></trkpt><trkpt lat="48.55354627569627" lon="-4.407392858492795"><ele>59.333333333333336</ele><time>2026-04-25T16:21:31.004Z</time></trkpt><trkpt lat="48.55353575441269" lon="-4.407289440936403"><ele>59.0</ele><time>2026-04-25T16:21:32.004Z</time></trkpt><trkpt lat="48.55352986492133" lon="-4.407193949376051"><ele>58.833333333333336</ele><time>2026-04-25T16:21:33.004Z</time></trkpt><trkpt lat="48.55353038879408" lon="-4.407080162204177"><ele>58.66666666666667</ele><time>2026-04-25T16:21:34.004Z</time></trkpt><trkpt lat="48.55353913530533" lon="-4.406964330158471"><ele>58.5</ele><time>2026-04-25T16:21:35.004Z</time></trkpt><trkpt lat="48.55355939527529" lon="-4.406843948891789"><ele>58.33333333333333</ele><time>2026-04-25T16:21:36.004Z</time></trkpt><trkpt lat="48.55360191522947" lon="-4.406728899334809"><ele>58.166666666666664</ele><time>2026-04-25T16:21:37.004Z</time></trkpt><trkpt lat="48.55365725488323" lon="-4.4066265508077755"><ele>58.0</ele><time>2026-04-25T16:21:38.004Z</time></trkpt><trkpt lat="48.5537239644567" lon="-4.406530017996576"><ele>58.0</ele><time>2026-04-25T16:21:39.004Z</time></trkpt><trkpt lat="48.55378637169925" lon="-4.406457958565225"><ele>58.0</ele><time>2026-04-25T16:21:40.004Z</time></trkpt><trkpt lat="48.5538677556558" lon="-4.4063475517850295"><ele>58.0</ele><time>2026-04-25T16:21:42.004Z</time></trkpt><trkpt lat="48.55394588552113" lon="-4.406260412783807"><ele>58.0</ele><time>2026-04-25T16:21:44.004Z</time></trkpt><trkpt lat="48.55401555892504" lon="-4.4061642111841595"><ele>58.0</ele><time>2026-04-25T16:21:46.004Z</time></trkpt><trkpt lat="48.554087651232244" lon="-4.406056898390704"><ele>57.4</ele><time>2026-04-25T16:21:48.004Z</time></trkpt><trkpt lat="48.55417028315136" lon="-4.405956057659813"><ele>56.8</ele><time>2026-04-25T16:21:50.004Z</time></trkpt><trkpt lat="48.554263103172126" lon="-4.405848035532886"><ele>56.2</ele><time>2026-04-25T16:21:52.004Z</time></trkpt><trkpt lat="48.554365111267565" lon="-4.405759798030343"><ele>55.6</ele><time>2026-04-25T16:21:54.004Z</time></trkpt><trkpt lat="48.55443714240162" lon="-4.405678761977206"><ele>55.0</ele><time>2026-04-25T16:21:56.004Z</time></trkpt><trkpt lat="48.55449959253605" lon="-4.405600906574116"><ele>55.2</ele><time>2026-04-25T16:21:58.004Z</time></trkpt><trkpt lat="48.554573317975304" lon="-4.405510069307072"><ele>55.4</ele><time>2026-04-25T16:22:00.004Z</time></trkpt><trkpt lat="48.5546226354463" lon="-4.405450471089075"><ele>55.599999999999994</ele><time>2026-04-25T16:22:01.004Z</time></trkpt><trkpt lat="48.55470266816267" lon="-4.4053378287416916"><ele>55.8</ele><time>2026-04-25T16:22:03.004Z</time></trkpt><trkpt lat="48.554744669631035" lon="-4.405215882270455"><ele>56.0</ele><time>2026-04-25T16:22:05.004Z</time></trkpt><trkpt lat="48.55477410146979" lon="-4.405060457891023"><ele>56.0</ele><time>2026-04-25T16:22:07.004Z</time></trkpt><trkpt lat="48.5548029655297" lon="-4.4049292422184605"><ele>55.99999999999999</ele><time>2026-04-25T16:22:09.004Z</time></trkpt><trkpt lat="48.55484369739525" lon="-4.404760443821272"><ele>55.99999999999999</ele><time>2026-04-25T16:22:11.004Z</time></trkpt><trkpt lat="48.55485947005994" lon="-4.40463804122325"><ele>56.0</ele><time>2026-04-25T16:22:12.004Z</time></trkpt><trkpt lat="48.5548660365695" lon="-4.404509686036632"><ele>56.0</ele><time>2026-04-25T16:22:13.004Z</time></trkpt><trkpt lat="48.55486184767666" lon="-4.404396190948098"><ele>56.0</ele><time>2026-04-25T16:22:14.004Z</time></trkpt><trkpt lat="48.554846747740136" lon="-4.404295696414665"><ele>55.99999999999999</ele><time>2026-04-25T16:22:15.004Z</time></trkpt><trkpt lat="48.55481941704617" lon="-4.404113362645068"><ele>55.99999999999999</ele><time>2026-04-25T16:22:17.004Z</time></trkpt><trkpt lat="48.55480841978079" lon="-4.403932179385839"><ele>56.0</ele><time>2026-04-25T16:22:19.004Z</time></trkpt><trkpt lat="48.5548185557798" lon="-4.403755432549875"><ele>56.0</ele><time>2026-04-25T16:22:21.004Z</time></trkpt><trkpt lat="48.554835603454165" lon="-4.403603564786213"><ele>55.333333333333336</ele><time>2026-04-25T16:22:23.003Z</time></trkpt><trkpt lat="48.554870844603016" lon="-4.403524626966664"><ele>54.66666666666667</ele><time>2026-04-25T16:22:24.003Z</time></trkpt><trkpt lat="48.55492004636381" lon="-4.403424489543431"><ele>54.0</ele><time>2026-04-25T16:22:25.003Z</time></trkpt><trkpt lat="48.55496790362195" lon="-4.403309701694118"><ele>53.33333333333333</ele><time>2026-04-25T16:22:26.003Z</time></trkpt><trkpt lat="48.5550258471138" lon="-4.403200705546333"><ele>52.666666666666664</ele><time>2026-04-25T16:22:27.003Z</time></trkpt><trkpt lat="48.555077910572614" lon="-4.403122445442849"><ele>52.0</ele><time>2026-04-25T16:22:28.003Z</time></trkpt><trkpt lat="48.55515258344523" lon="-4.402988785100432"><ele>52.0</ele><time>2026-04-25T16:22:30.003Z</time></trkpt><trkpt lat="48.555212282175056" lon="-4.4028890108430785"><ele>52.0</ele><time>2026-04-25T16:22:32.003Z</time></trkpt><trkpt lat="48.55530465927669" lon="-4.402770675300609"><ele>52.0</ele><time>2026-04-25T16:22:34.003Z</time></trkpt><trkpt lat="48.55537972779159" lon="-4.402678636468131"><ele>52.0</ele><time>2026-04-25T16:22:36.003Z</time></trkpt><trkpt lat="48.55546957098676" lon="-4.402582629537327"><ele>52.0</ele><time>2026-04-25T16:22:38.003Z</time></trkpt><trkpt lat="48.555532665739356" lon="-4.402432359491653"><ele>51.99999999999999</ele><time>2026-04-25T16:22:40.003Z</time></trkpt><trkpt lat="48.55562091426709" lon="-4.402363195838337"><ele>52.0</ele><time>2026-04-25T16:22:43.003Z</time></trkpt><trkpt lat="48.55568136397452" lon="-4.402303917457135"><ele>52.0</ele><time>2026-04-25T16:22:45.003Z</time></trkpt><trkpt lat="48.555732718836076" lon="-4.40224679389743"><ele>52.0</ele><time>2026-04-25T16:22:46.003Z</time></trkpt><trkpt lat="48.55578432133381" lon="-4.402175990688987"><ele>51.99999999999999</ele><time>2026-04-25T16:22:47.003Z</time></trkpt><trkpt lat="48.55589498068628" lon="-4.402116839742121"><ele>52.0</ele><time>2026-04-25T16:22:49.003Z</time></trkpt><trkpt lat="48.555963223033366" lon="-4.402019463990927"><ele>50.6</ele><time>2026-04-25T16:22:51.003Z</time></trkpt><trkpt lat="48.556063582951786" lon="-4.401960173441781"><ele>49.2</ele><time>2026-04-25T16:22:53.003Z</time></trkpt><trkpt lat="48.55613710560795" lon="-4.401879105792508"><ele>47.8</ele><time>2026-04-25T16:22:55.003Z</time></trkpt><trkpt lat="48.55624084857444" lon="-4.401803070560532"><ele>46.4</ele><time>2026-04-25T16:22:57.003Z</time></trkpt><trkpt lat="48.55631608503171" lon="-4.401735109626917"><ele>45.0</ele><time>2026-04-25T16:22:59.003Z</time></trkpt><trkpt lat="48.55640987668321" lon="-4.401664449189077"><ele>43.2</ele><time>2026-04-25T16:23:02.003Z</time></trkpt><trkpt lat="48.55650178028622" lon="-4.4016074913310845"><ele>41.4</ele><time>2026-04-25T16:23:04.003Z</time></trkpt><trkpt lat="48.5565834786518" lon="-4.401570854753177"><ele>39.6</ele><time>2026-04-25T16:23:06.003Z</time></trkpt><trkpt lat="48.556656786567245" lon="-4.401454731069958"><ele>37.8</ele><time>2026-04-25T16:23:08.003Z</time></trkpt><trkpt lat="48.55670797562988" lon="-4.401395914784571"><ele>36.0</ele><time>2026-04-25T16:23:15.003Z</time></trkpt><trkpt lat="48.556889624586404" lon="-4.401369985370804"><ele>36.0</ele><time>2026-04-25T16:23:31.004Z</time></trkpt><trkpt lat="48.556965202762385" lon="-4.401426402883572"><ele>36.0</ele><time>2026-04-25T16:23:33.004Z</time></trkpt><trkpt lat="48.557030886777" lon="-4.401509503593015"><ele>36.0</ele><time>2026-04-25T16:23:35.004Z</time></trkpt><trkpt lat="48.55708088678335" lon="-4.401584240595964"><ele>36.0</ele><time>2026-04-25T16:23:37.004Z</time></trkpt><trkpt lat="48.55716982435502" lon="-4.401698173275702"><ele>36.0</ele><time>2026-04-25T16:23:39.004Z</time></trkpt><trkpt lat="48.55724461468531" lon="-4.40177817550761"><ele>36.0</ele><time>2026-04-25T16:23:40.004Z</time></trkpt><trkpt lat="48.55729999952473" lon="-4.401857865812216"><ele>36.25</ele><time>2026-04-25T16:23:41.004Z</time></trkpt><trkpt lat="48.55735050497617" lon="-4.4019320042196775"><ele>36.5</ele><time>2026-04-25T16:23:42.004Z</time></trkpt><trkpt lat="48.557423948243176" lon="-4.4020618127862"><ele>36.75</ele><time>2026-04-25T16:23:43.004Z</time></trkpt><trkpt lat="48.55750700154663" lon="-4.402202071357424"><ele>37.0</ele><time>2026-04-25T16:23:44.004Z</time></trkpt><trkpt lat="48.5575896851678" lon="-4.402377707340764"><ele>37.0</ele><time>2026-04-25T16:23:45.004Z</time></trkpt><trkpt lat="48.55767982417368" lon="-4.402536736146386"><ele>37.0</ele><time>2026-04-25T16:23:46.003Z</time></trkpt><trkpt lat="48.55773260116556" lon="-4.402711715113926"><ele>37.0</ele><time>2026-04-25T16:23:47.003Z</time></trkpt><trkpt lat="48.557801721011586" lon="-4.402879053305004"><ele>37.0</ele><time>2026-04-25T16:23:48.003Z</time></trkpt><trkpt lat="48.557871394792635" lon="-4.403071333907451"><ele>33.333333333333336</ele><time>2026-04-25T16:23:49.003Z</time></trkpt><trkpt lat="48.557950548585886" lon="-4.403284278442089"><ele>29.666666666666664</ele><time>2026-04-25T16:23:50.003Z</time></trkpt><trkpt lat="48.558024861424926" lon="-4.403512656384584"><ele>26.0</ele><time>2026-04-25T16:23:51.003Z</time></trkpt><trkpt lat="48.55809718526343" lon="-4.403750653905178"><ele>27.0</ele><time>2026-04-25T16:23:52.003Z</time></trkpt><trkpt lat="48.558168793060254" lon="-4.403987627439635"><ele>28.0</ele><time>2026-04-25T16:23:53.003Z</time></trkpt><trkpt lat="48.55822467594153" lon="-4.404209845423702"><ele>29.0</ele><time>2026-04-25T16:23:54.003Z</time></trkpt><trkpt lat="48.55827779707746" lon="-4.4044111693082195"><ele>29.0</ele><time>2026-04-25T16:23:55.003Z</time></trkpt><trkpt lat="48.55832271198544" lon="-4.404600781608445"><ele>29.0</ele><time>2026-04-25T16:23:56.003Z</time></trkpt><trkpt lat="48.5583755328662" lon="-4.40478335681599"><ele>29.0</ele><time>2026-04-25T16:23:57.003Z</time></trkpt><trkpt lat="48.55842905691853" lon="-4.404952831404401"><ele>29.0</ele><time>2026-04-25T16:23:58.003Z</time></trkpt><trkpt lat="48.558479979654045" lon="-4.405090900197695"><ele>30.0</ele><time>2026-04-25T16:23:59.003Z</time></trkpt><trkpt lat="48.55850549843688" lon="-4.405217391951269"><ele>31.0</ele><time>2026-04-25T16:24:00.003Z</time></trkpt><trkpt lat="48.558551003236815" lon="-4.405341011510859"><ele>32.0</ele><time>2026-04-25T16:24:01.003Z</time></trkpt><trkpt lat="48.558593334981815" lon="-4.405473873705198"><ele>33.0</ele><time>2026-04-25T16:24:02.003Z</time></trkpt><trkpt lat="48.55862222901707" lon="-4.405637178749148"><ele>34.0</ele><time>2026-04-25T16:24:03.003Z</time></trkpt><trkpt lat="48.5586646852616" lon="-4.405794690528109"><ele>32.5</ele><time>2026-04-25T16:24:04.003Z</time></trkpt><trkpt lat="48.558713327816015" lon="-4.4059744871349515"><ele>31.0</ele><time>2026-04-25T16:24:05.003Z</time></trkpt><trkpt lat="48.55875270408375" lon="-4.406150930162183"><ele>29.5</ele><time>2026-04-25T16:24:06.003Z</time></trkpt><trkpt lat="48.55878260320847" lon="-4.4063233089810465"><ele>28.0</ele><time>2026-04-25T16:24:07.003Z</time></trkpt><trkpt lat="48.55881756683073" lon="-4.4064830159619435"><ele>28.0</ele><time>2026-04-25T16:24:08.003Z</time></trkpt><trkpt lat="48.558831775640364" lon="-4.406629960336308"><ele>27.999999999999996</ele><time>2026-04-25T16:24:09.003Z</time></trkpt><trkpt lat="48.558863614574136" lon="-4.4067517099901234"><ele>27.999999999999996</ele><time>2026-04-25T16:24:10.003Z</time></trkpt><trkpt lat="48.55890487282463" lon="-4.406875089420084"><ele>28.0</ele><time>2026-04-25T16:24:11.003Z</time></trkpt><trkpt lat="48.55893247609577" lon="-4.407003935798908"><ele>28.0</ele><time>2026-04-25T16:24:12.003Z</time></trkpt><trkpt lat="48.558974854187" lon="-4.407132015117532"><ele>28.799999999999997</ele><time>2026-04-25T16:24:13.003Z</time></trkpt><trkpt lat="48.55901960125144" lon="-4.407272603365302"><ele>29.599999999999998</ele><time>2026-04-25T16:24:14.003Z</time></trkpt><trkpt lat="48.55905573341906" lon="-4.407413489010627"><ele>30.400000000000002</ele><time>2026-04-25T16:24:15.003Z</time></trkpt><trkpt lat="48.559105805756495" lon="-4.407551784740288"><ele>31.200000000000003</ele><time>2026-04-25T16:24:16.003Z</time></trkpt><trkpt lat="48.559160239404356" lon="-4.407705528490715"><ele>32.0</ele><time>2026-04-25T16:24:17.003Z</time></trkpt><trkpt lat="48.55920375530738" lon="-4.40786930466132"><ele>33.5</ele><time>2026-04-25T16:24:18.003Z</time></trkpt><trkpt lat="48.559236168020774" lon="-4.408048465210785"><ele>35.0</ele><time>2026-04-25T16:24:19.003Z</time></trkpt><trkpt lat="48.55927257690409" lon="-4.40822596167048"><ele>36.5</ele><time>2026-04-25T16:24:20.003Z</time></trkpt><trkpt lat="48.5593091782448" lon="-4.408390875080934"><ele>38.0</ele><time>2026-04-25T16:24:21.003Z</time></trkpt><trkpt lat="48.55933593810089" lon="-4.408552446838952"><ele>38.0</ele><time>2026-04-25T16:24:22.003Z</time></trkpt><trkpt lat="48.55937991639901" lon="-4.408713225950936"><ele>38.0</ele><time>2026-04-25T16:24:23.003Z</time></trkpt><trkpt lat="48.559415185845026" lon="-4.408889414795047"><ele>38.0</ele><time>2026-04-25T16:24:24.003Z</time></trkpt><trkpt lat="48.55944560816918" lon="-4.409068804852964"><ele>38.0</ele><time>2026-04-25T16:24:25.003Z</time></trkpt><trkpt lat="48.55949856404527" lon="-4.409243685838045"><ele>39.2</ele><time>2026-04-25T16:24:26.003Z</time></trkpt><trkpt lat="48.55952211497462" lon="-4.40939844904712"><ele>40.4</ele><time>2026-04-25T16:24:27.003Z</time></trkpt><trkpt lat="48.559545215692914" lon="-4.409526193236632"><ele>41.6</ele><time>2026-04-25T16:24:28.003Z</time></trkpt><trkpt lat="48.55956655602948" lon="-4.409646593592662"><ele>42.800000000000004</ele><time>2026-04-25T16:24:29.003Z</time></trkpt><trkpt lat="48.55957857627445" lon="-4.409779105085423"><ele>44.0</ele><time>2026-04-25T16:24:30.003Z</time></trkpt><trkpt lat="48.559579374342526" lon="-4.409914455073136"><ele>40.800000000000004</ele><time>2026-04-25T16:24:31.003Z</time></trkpt><trkpt lat="48.559583030198695" lon="-4.41005629084361"><ele>37.6</ele><time>2026-04-25T16:24:32.003Z</time></trkpt><trkpt lat="48.55957528857233" lon="-4.410207326307428"><ele>34.4</ele><time>2026-04-25T16:24:33.003Z</time></trkpt><trkpt lat="48.55956818070213" lon="-4.410360968348296"><ele>31.2</ele><time>2026-04-25T16:24:34.003Z</time></trkpt><trkpt lat="48.55956922420854" lon="-4.410499995171018"><ele>28.0</ele><time>2026-04-25T16:24:35.003Z</time></trkpt><trkpt lat="48.5595671008448" lon="-4.410644909339602"><ele>28.0</ele><time>2026-04-25T16:24:36.003Z</time></trkpt><trkpt lat="48.55955579210503" lon="-4.410772823421343"><ele>27.999999999999996</ele><time>2026-04-25T16:24:37.003Z</time></trkpt><trkpt lat="48.559549223805334" lon="-4.410873005579067"><ele>27.999999999999996</ele><time>2026-04-25T16:24:38.003Z</time></trkpt><trkpt lat="48.559545125137795" lon="-4.411066366431476"><ele>28.0</ele><time>2026-04-25T16:24:40.003Z</time></trkpt><trkpt lat="48.55954000747368" lon="-4.4111740694393395"><ele>28.0</ele><time>2026-04-25T16:24:41.003Z</time></trkpt><trkpt lat="48.559543602706455" lon="-4.411369724947059"><ele>27.2</ele><time>2026-04-25T16:24:43.003Z</time></trkpt><trkpt lat="48.559589873810715" lon="-4.411518894643114"><ele>26.4</ele><time>2026-04-25T16:24:45.003Z</time></trkpt><trkpt lat="48.55962549541987" lon="-4.411635412043382"><ele>25.599999999999998</ele><time>2026-04-25T16:24:47.003Z</time></trkpt><trkpt lat="48.559689951442316" lon="-4.4117645558481176"><ele>24.799999999999997</ele><time>2026-04-25T16:24:49.003Z</time></trkpt><trkpt lat="48.55978092672786" lon="-4.411822485381818"><ele>24.0</ele><time>2026-04-25T16:24:51.003Z</time></trkpt><trkpt lat="48.5598493931407" lon="-4.411789838503218"><ele>24.0</ele><time>2026-04-25T16:24:52.003Z</time></trkpt><trkpt lat="48.55995756104984" lon="-4.411768225978154"><ele>24.0</ele><time>2026-04-25T16:24:54.003Z</time></trkpt><trkpt lat="48.56004726472684" lon="-4.411748635843049"><ele>24.0</ele><time>2026-04-25T16:24:56.003Z</time></trkpt><trkpt lat="48.56015118582395" lon="-4.4117295264514285"><ele>24.0</ele><time>2026-04-25T16:24:58.003Z</time></trkpt><trkpt lat="48.56021553159474" lon="-4.411720356164631"><ele>24.0</ele><time>2026-04-25T16:24:59.003Z</time></trkpt><trkpt lat="48.56033155195851" lon="-4.411675452519648"><ele>26.0</ele><time>2026-04-25T16:25:01.003Z</time></trkpt><trkpt lat="48.56044668027541" lon="-4.41160623259299"><ele>28.0</ele><time>2026-04-25T16:25:03.003Z</time></trkpt><trkpt lat="48.56054372238821" lon="-4.411527280498444"><ele>30.0</ele><time>2026-04-25T16:25:05.003Z</time></trkpt><trkpt lat="48.56065369181152" lon="-4.411513211608576"><ele>32.0</ele><time>2026-04-25T16:25:07.003Z</time></trkpt><trkpt lat="48.560718362606735" lon="-4.411520711180896"><ele>34.0</ele><time>2026-04-25T16:25:08.003Z</time></trkpt><trkpt lat="48.56080838722019" lon="-4.411514456782821"><ele>34.0</ele><time>2026-04-25T16:25:10.002Z</time></trkpt><trkpt lat="48.56089545172989" lon="-4.411551653450249"><ele>34.0</ele><time>2026-04-25T16:25:12.002Z</time></trkpt><trkpt lat="48.560954187439144" lon="-4.411612374402648"><ele>34.0</ele><time>2026-04-25T16:25:15.002Z</time></trkpt><trkpt lat="48.56098658001127" lon="-4.411749060166043"><ele>34.0</ele><time>2026-04-25T16:25:20.002Z</time></trkpt><trkpt lat="48.56101530107415" lon="-4.411839250848479"><ele>34.0</ele><time>2026-04-25T16:25:22.002Z</time></trkpt><trkpt lat="48.56102953852171" lon="-4.411939917653417"><ele>34.0</ele><time>2026-04-25T16:25:37.004Z</time></trkpt><trkpt lat="48.561063604714064" lon="-4.412022653933789"><ele>34.0</ele><time>2026-04-25T16:25:39.005Z</time></trkpt><trkpt lat="48.56111903320695" lon="-4.412089171088793"><ele>34.0</ele><time>2026-04-25T16:25:42.005Z</time></trkpt><trkpt lat="48.561210865989395" lon="-4.412065265585109"><ele>34.0</ele><time>2026-04-25T16:26:04.004Z</time></trkpt><trkpt lat="48.5611961467855" lon="-4.411951101561862"><ele>34.0</ele><time>2026-04-25T16:26:06.004Z</time></trkpt><trkpt lat="48.561175701060996" lon="-4.41182823967378"><ele>34.0</ele><time>2026-04-25T16:26:10.004Z</time></trkpt><trkpt lat="48.5611689936949" lon="-4.41172766632818"><ele>34.0</ele><time>2026-04-25T16:26:12.004Z</time></trkpt><trkpt lat="48.56117871641121" lon="-4.411562122757212"><ele>38.0</ele><time>2026-04-25T16:26:14.004Z</time></trkpt><trkpt lat="48.56120062479563" lon="-4.411457130782278"><ele>42.0</ele><time>2026-04-25T16:26:15.004Z</time></trkpt><trkpt lat="48.561223239527685" lon="-4.411265959243578"><ele>46.0</ele><time>2026-04-25T16:26:20.004Z</time></trkpt><trkpt lat="48.56125620840299" lon="-4.411136568095986"><ele>50.0</ele><time>2026-04-25T16:26:22.004Z</time></trkpt><trkpt lat="48.56139790454265" lon="-4.411004236709613"><ele>50.0</ele><time>2026-04-25T16:26:24.004Z</time></trkpt><trkpt lat="48.56150752030685" lon="-4.410871763215937"><ele>50.0</ele><time>2026-04-25T16:26:25.004Z</time></trkpt><trkpt lat="48.561609366507284" lon="-4.410756558560454"><ele>50.0</ele><time>2026-04-25T16:26:26.004Z</time></trkpt><trkpt lat="48.56173442280392" lon="-4.41062281671641"><ele>50.0</ele><time>2026-04-25T16:26:27.004Z</time></trkpt><trkpt lat="48.56186067863247" lon="-4.410506274131258"><ele>50.333333333333336</ele><time>2026-04-25T16:26:28.004Z</time></trkpt><trkpt lat="48.56196904110612" lon="-4.410397551228784"><ele>50.66666666666667</ele><time>2026-04-25T16:26:29.004Z</time></trkpt><trkpt lat="48.56205364336688" lon="-4.410320568458819"><ele>51.0</ele><time>2026-04-25T16:26:30.004Z</time></trkpt><trkpt lat="48.562121341544575" lon="-4.410250503279603"><ele>51.33333333333333</ele><time>2026-04-25T16:26:31.004Z</time></trkpt><trkpt lat="48.562181652627345" lon="-4.410195365083438"><ele>51.666666666666664</ele><time>2026-04-25T16:26:32.004Z</time></trkpt><trkpt lat="48.56224143084014" lon="-4.410156406392187"><ele>52.0</ele><time>2026-04-25T16:26:33.004Z</time></trkpt><trkpt lat="48.56230401337281" lon="-4.410106803945631"><ele>52.33333333333333</ele><time>2026-04-25T16:26:34.004Z</time></trkpt><trkpt lat="48.562369714339" lon="-4.410050201322262"><ele>52.666666666666664</ele><time>2026-04-25T16:26:36.004Z</time></trkpt><trkpt lat="48.562427483781256" lon="-4.409994282959199"><ele>53.0</ele><time>2026-04-25T16:26:50.004Z</time></trkpt><trkpt lat="48.56250301607397" lon="-4.410000245772959"><ele>53.33333333333333</ele><time>2026-04-25T16:26:52.004Z</time></trkpt><trkpt lat="48.562578407699824" lon="-4.409999367703301"><ele>53.666666666666664</ele><time>2026-04-25T16:26:54.004Z</time></trkpt><trkpt lat="48.562667525562276" lon="-4.409998238443868"><ele>54.0</ele><time>2026-04-25T16:26:56.004Z</time></trkpt><trkpt lat="48.56275132088371" lon="-4.409987573733279"><ele>54.0</ele><time>2026-04-25T16:26:58.004Z</time></trkpt><trkpt lat="48.56282185949562" lon="-4.409987950536225"><ele>54.0</ele><time>2026-04-25T16:26:59.004Z</time></trkpt><trkpt lat="48.56289529902204" lon="-4.409987006378826"><ele>54.0</ele><time>2026-04-25T16:27:00.004Z</time></trkpt><trkpt lat="48.563024746555584" lon="-4.409993459997254"><ele>54.0</ele><time>2026-04-25T16:27:02.004Z</time></trkpt><trkpt lat="48.563113393763736" lon="-4.409993386503809"><ele>54.0</ele><time>2026-04-25T16:27:03.004Z</time></trkpt><trkpt lat="48.56319724543119" lon="-4.409995320482098"><ele>54.0</ele><time>2026-04-25T16:27:04.004Z</time></trkpt><trkpt lat="48.563274126571514" lon="-4.409994621410845"><ele>54.42857142857143</ele><time>2026-04-25T16:27:05.004Z</time></trkpt><trkpt lat="48.56334816339509" lon="-4.409998131213249"><ele>54.857142857142854</ele><time>2026-04-25T16:27:06.004Z</time></trkpt><trkpt lat="48.56341875372873" lon="-4.40999848996917"><ele>55.285714285714285</ele><time>2026-04-25T16:27:07.003Z</time></trkpt><trkpt lat="48.56349139287883" lon="-4.410001554315639"><ele>55.71428571428571</ele><time>2026-04-25T16:27:08.003Z</time></trkpt><trkpt lat="48.56356159092363" lon="-4.410001342990969"><ele>56.14285714285714</ele><time>2026-04-25T16:27:09.003Z</time></trkpt><trkpt lat="48.56363115901055" lon="-4.410000402008226"><ele>56.57142857142857</ele><time>2026-04-25T16:27:10.003Z</time></trkpt><trkpt lat="48.563700994724954" lon="-4.409998030701547"><ele>57.0</ele><time>2026-04-25T16:27:11.003Z</time></trkpt><trkpt lat="48.56377015993817" lon="-4.409994709079346"><ele>57.400000000000006</ele><time>2026-04-25T16:27:12.003Z</time></trkpt><trkpt lat="48.563841355319596" lon="-4.409991645036374"><ele>57.800000000000004</ele><time>2026-04-25T16:27:13.003Z</time></trkpt><trkpt lat="48.563917182488424" lon="-4.40999571899373"><ele>58.2</ele><time>2026-04-25T16:27:14.003Z</time></trkpt><trkpt lat="48.56398474707287" lon="-4.409992076519163"><ele>58.6</ele><time>2026-04-25T16:27:15.003Z</time></trkpt><trkpt lat="48.564103815275764" lon="-4.4099917894643115"><ele>59.0</ele><time>2026-04-25T16:27:17.003Z</time></trkpt><trkpt lat="48.56422712621637" lon="-4.409995646921824"><ele>59.0</ele><time>2026-04-25T16:27:19.003Z</time></trkpt><trkpt lat="48.56433783076442" lon="-4.410006301424051"><ele>59.0</ele><time>2026-04-25T16:27:21.003Z</time></trkpt><trkpt lat="48.56445233966893" lon="-4.410009859538579"><ele>59.0</ele><time>2026-04-25T16:27:23.003Z</time></trkpt><trkpt lat="48.56455466493224" lon="-4.410019858805258"><ele>59.0</ele><time>2026-04-25T16:27:25.003Z</time></trkpt><trkpt lat="48.56467624482182" lon="-4.410010935683303"><ele>59.2</ele><time>2026-04-25T16:27:27.003Z</time></trkpt><trkpt lat="48.564759411646115" lon="-4.4100124058195656"><ele>59.400000000000006</ele><time>2026-04-25T16:27:28.003Z</time></trkpt><trkpt lat="48.56485648636623" lon="-4.410012355384087"><ele>59.6</ele><time>2026-04-25T16:27:29.003Z</time></trkpt><trkpt lat="48.56495904244978" lon="-4.410009829404267"><ele>59.8</ele><time>2026-04-25T16:27:30.003Z</time></trkpt><trkpt lat="48.56506251878674" lon="-4.410010500383125"><ele>60.0</ele><time>2026-04-25T16:27:31.003Z</time></trkpt><trkpt lat="48.56516591158329" lon="-4.410012086073512"><ele>60.0</ele><time>2026-04-25T16:27:32.003Z</time></trkpt><trkpt lat="48.56527082332917" lon="-4.410009571568061"><ele>60.0</ele><time>2026-04-25T16:27:33.005Z</time></trkpt><trkpt lat="48.565369750137656" lon="-4.410009600297944"><ele>60.0</ele><time>2026-04-25T16:27:34.005Z</time></trkpt><trkpt lat="48.56545838226952" lon="-4.410003779103469"><ele>60.0</ele><time>2026-04-25T16:27:35.005Z</time></trkpt><trkpt lat="48.565559597414115" lon="-4.41000014049391"><ele>60.0</ele><time>2026-04-25T16:27:36.005Z</time></trkpt><trkpt lat="48.56565626341504" lon="-4.409996016346199"><ele>60.142857142857146</ele><time>2026-04-25T16:27:37.005Z</time></trkpt><trkpt lat="48.56573425592213" lon="-4.4099934857139464"><ele>60.28571428571428</ele><time>2026-04-25T16:27:38.005Z</time></trkpt><trkpt lat="48.565814421921985" lon="-4.409980780969739"><ele>60.42857142857142</ele><time>2026-04-25T16:27:39.004Z</time></trkpt><trkpt lat="48.565884780181214" lon="-4.409966686185229"><ele>60.57142857142857</ele><time>2026-04-25T16:27:40.005Z</time></trkpt><trkpt lat="48.56595932518212" lon="-4.409956487025983"><ele>60.71428571428571</ele><time>2026-04-25T16:27:41.005Z</time></trkpt><trkpt lat="48.56603242133346" lon="-4.409939812685875"><ele>60.85714285714285</ele><time>2026-04-25T16:27:42.005Z</time></trkpt><trkpt lat="48.566100133513714" lon="-4.409926102615397"><ele>60.99999999999999</ele><time>2026-04-25T16:27:43.005Z</time></trkpt><trkpt lat="48.56622492569523" lon="-4.409905655405079"><ele>60.99999999999999</ele><time>2026-04-25T16:27:45.004Z</time></trkpt><trkpt lat="48.56635423465798" lon="-4.409896849894953"><ele>61.0</ele><time>2026-04-25T16:27:47.004Z</time></trkpt><trkpt lat="48.566423577562425" lon="-4.409899345529524"><ele>61.0</ele><time>2026-04-25T16:27:48.004Z</time></trkpt><trkpt lat="48.56648713250458" lon="-4.409915930177876"><ele>61.0</ele><time>2026-04-25T16:27:49.004Z</time></trkpt><trkpt lat="48.566583917882106" lon="-4.409948245669782"><ele>60.99999999999999</ele><time>2026-04-25T16:27:51.004Z</time></trkpt><trkpt lat="48.566662344187655" lon="-4.409942931203463"><ele>61.0</ele><time>2026-04-25T16:27:54.004Z</time></trkpt><trkpt lat="48.56671414782443" lon="-4.409833335181982"><ele>61.0</ele><time>2026-04-25T16:27:57.004Z</time></trkpt><trkpt lat="48.566695785268024" lon="-4.409666015122933"><ele>60.99999999999999</ele><time>2026-04-25T16:27:59.004Z</time></trkpt><trkpt lat="48.56667053202502" lon="-4.40953857520966"><ele>60.99999999999999</ele><time>2026-04-25T16:28:01.004Z</time></trkpt><trkpt lat="48.56665483358892" lon="-4.409409426687228"><ele>61.0</ele><time>2026-04-25T16:28:03.004Z</time></trkpt><trkpt lat="48.56664114543991" lon="-4.409248137320331"><ele>61.0</ele><time>2026-04-25T16:28:05.004Z</time></trkpt><trkpt lat="48.56661699333017" lon="-4.409073488809984"><ele>61.0</ele><time>2026-04-25T16:28:07.004Z</time></trkpt><trkpt lat="48.56660307712878" lon="-4.40895348141158"><ele>60.99999999999999</ele><time>2026-04-25T16:28:08.004Z</time></trkpt><trkpt lat="48.566585191222785" lon="-4.408826324877003"><ele>60.99999999999999</ele><time>2026-04-25T16:28:09.004Z</time></trkpt><trkpt lat="48.56656457588711" lon="-4.4086836447940785"><ele>61.0</ele><time>2026-04-25T16:28:10.004Z</time></trkpt><trkpt lat="48.5665502708205" lon="-4.4085287482562014"><ele>61.0</ele><time>2026-04-25T16:28:11.004Z</time></trkpt><trkpt lat="48.56653176599821" lon="-4.40837707548594"><ele>61.33333333333333</ele><time>2026-04-25T16:28:12.004Z</time></trkpt><trkpt lat="48.566514074970044" lon="-4.408234038559032"><ele>61.666666666666664</ele><time>2026-04-25T16:28:13.004Z</time></trkpt><trkpt lat="48.56649911626492" lon="-4.408103881186341"><ele>62.0</ele><time>2026-04-25T16:28:14.004Z</time></trkpt><trkpt lat="48.56648481267888" lon="-4.407991062497608"><ele>62.33333333333333</ele><time>2026-04-25T16:28:15.004Z</time></trkpt><trkpt lat="48.56646556856954" lon="-4.407823025809567"><ele>62.666666666666664</ele><time>2026-04-25T16:28:17.004Z</time></trkpt><trkpt lat="48.56645191385355" lon="-4.40771775802787"><ele>63.0</ele><time>2026-04-25T16:28:18.004Z</time></trkpt><trkpt lat="48.566440968351166" lon="-4.407615399096243"><ele>63.166666666666664</ele><time>2026-04-25T16:28:19.004Z</time></trkpt><trkpt lat="48.56642036421587" lon="-4.407443318252029"><ele>63.33333333333333</ele><time>2026-04-25T16:28:21.004Z</time></trkpt><trkpt lat="48.56640745015459" lon="-4.407344793608549"><ele>63.5</ele><time>2026-04-25T16:28:22.004Z</time></trkpt><trkpt lat="48.56639645011298" lon="-4.407248289109969"><ele>63.666666666666664</ele><time>2026-04-25T16:28:23.004Z</time></trkpt><trkpt lat="48.56636963106851" lon="-4.40705129675513"><ele>63.83333333333333</ele><time>2026-04-25T16:28:25.004Z</time></trkpt><trkpt lat="48.56635730625378" lon="-4.406956648027942"><ele>64.0</ele><time>2026-04-25T16:28:26.004Z</time></trkpt><trkpt lat="48.56633867843479" lon="-4.40678832761765"><ele>63.99999999999999</ele><time>2026-04-25T16:28:28.004Z</time></trkpt><trkpt lat="48.566329244709074" lon="-4.406692598014577"><ele>64.0</ele><time>2026-04-25T16:28:29.004Z</time></trkpt><trkpt lat="48.56630723882015" lon="-4.406536385718534"><ele>64.0</ele><time>2026-04-25T16:28:31.004Z</time></trkpt><trkpt lat="48.56629681589502" lon="-4.406397620883623"><ele>64.0</ele><time>2026-04-25T16:28:33.004Z</time></trkpt><trkpt lat="48.566268510458535" lon="-4.40625058117063"><ele>63.99999999999999</ele><time>2026-04-25T16:28:35.004Z</time></trkpt><trkpt lat="48.56627148596813" lon="-4.406146040535203"><ele>64.0</ele><time>2026-04-25T16:28:37.004Z</time></trkpt><trkpt lat="48.56632233097064" lon="-4.406077133520329"><ele>63.800000000000004</ele><time>2026-04-25T16:28:39.004Z</time></trkpt><trkpt lat="48.56638668899193" lon="-4.406035248799431"><ele>63.60000000000001</ele><time>2026-04-25T16:28:41.004Z</time></trkpt><trkpt lat="48.5664896688464" lon="-4.406001806300075"><ele>63.4</ele><time>2026-04-25T16:28:43.004Z</time></trkpt><trkpt lat="48.56658142854021" lon="-4.40600781108277"><ele>63.2</ele><time>2026-04-25T16:28:45.004Z</time></trkpt><trkpt lat="48.566675398110334" lon="-4.405999678720645"><ele>63.0</ele><time>2026-04-25T16:28:47.004Z</time></trkpt><trkpt lat="48.56678652837072" lon="-4.405970898474638"><ele>63.0</ele><time>2026-04-25T16:28:49.004Z</time></trkpt><trkpt lat="48.56690512378787" lon="-4.405949104033086"><ele>63.0</ele><time>2026-04-25T16:28:51.004Z</time></trkpt><trkpt lat="48.56697196198494" lon="-4.405943509508157"><ele>63.0</ele><time>2026-04-25T16:28:52.004Z</time></trkpt><trkpt lat="48.56703993639444" lon="-4.405937020999663"><ele>63.0</ele><time>2026-04-25T16:28:53.004Z</time></trkpt><trkpt lat="48.56717044381284" lon="-4.405927621893898"><ele>63.0</ele><time>2026-04-25T16:28:55.004Z</time></trkpt><trkpt lat="48.56724703696895" lon="-4.405937685495174"><ele>63.14285714285714</ele><time>2026-04-25T16:28:56.004Z</time></trkpt><trkpt lat="48.56731969312379" lon="-4.405959657100563"><ele>63.285714285714285</ele><time>2026-04-25T16:28:57.004Z</time></trkpt><trkpt lat="48.567381607723014" lon="-4.405986317445907"><ele>63.42857142857143</ele><time>2026-04-25T16:28:58.004Z</time></trkpt><trkpt lat="48.56744471655034" lon="-4.406011045451559"><ele>63.57142857142857</ele><time>2026-04-25T16:28:59.004Z</time></trkpt><trkpt lat="48.56751710886827" lon="-4.406042299808593"><ele>63.71428571428571</ele><time>2026-04-25T16:29:00.004Z</time></trkpt><trkpt lat="48.567590865693845" lon="-4.406075693913223"><ele>63.857142857142854</ele><time>2026-04-25T16:29:01.004Z</time></trkpt><trkpt lat="48.56766198869806" lon="-4.406109730172868"><ele>64.0</ele><time>2026-04-25T16:29:02.004Z</time></trkpt><trkpt lat="48.56772989691485" lon="-4.406147214977499"><ele>63.99999999999999</ele><time>2026-04-25T16:29:03.004Z</time></trkpt><trkpt lat="48.56779980260529" lon="-4.406190185109507"><ele>64.0</ele><time>2026-04-25T16:29:04.004Z</time></trkpt><trkpt lat="48.5678778435252" lon="-4.406235857428092"><ele>64.0</ele><time>2026-04-25T16:29:05.004Z</time></trkpt><trkpt lat="48.56794652233411" lon="-4.40628097005325"><ele>64.0</ele><time>2026-04-25T16:29:06.003Z</time></trkpt><trkpt lat="48.56801593762307" lon="-4.406315443677941"><ele>63.99999999999999</ele><time>2026-04-25T16:29:07.003Z</time></trkpt><trkpt lat="48.56808504734331" lon="-4.4063447351889025"><ele>64.0</ele><time>2026-04-25T16:29:08.003Z</time></trkpt><trkpt lat="48.568160023595425" lon="-4.4063750412820655"><ele>64.0</ele><time>2026-04-25T16:29:09.003Z</time></trkpt><trkpt lat="48.56823987273044" lon="-4.406423193409428"><ele>64.0</ele><time>2026-04-25T16:29:10.003Z</time></trkpt><trkpt lat="48.568316529807255" lon="-4.406479635634457"><ele>64.0</ele><time>2026-04-25T16:29:11.003Z</time></trkpt><trkpt lat="48.56839525165443" lon="-4.406540958247428"><ele>64.0</ele><time>2026-04-25T16:29:12.003Z</time></trkpt><trkpt lat="48.56848542248476" lon="-4.406593679858905"><ele>64.0</ele><time>2026-04-25T16:29:13.003Z</time></trkpt><trkpt lat="48.56858049457949" lon="-4.406649935710186"><ele>63.99999999999999</ele><time>2026-04-25T16:29:14.003Z</time></trkpt><trkpt lat="48.56865381504202" lon="-4.406705986433924"><ele>64.0</ele><time>2026-04-25T16:29:15.003Z</time></trkpt><trkpt lat="48.56872127062559" lon="-4.406749771537298"><ele>64.0</ele><time>2026-04-25T16:29:16.003Z</time></trkpt><trkpt lat="48.56879534116288" lon="-4.406798847174302"><ele>64.0</ele><time>2026-04-25T16:29:17.003Z</time></trkpt><trkpt lat="48.56887723793077" lon="-4.406849535262543"><ele>63.99999999999999</ele><time>2026-04-25T16:29:18.003Z</time></trkpt><trkpt lat="48.56896364953502" lon="-4.406900149629698"><ele>64.0</ele><time>2026-04-25T16:29:19.003Z</time></trkpt><trkpt lat="48.56906201940628" lon="-4.40696298433092"><ele>64.0</ele><time>2026-04-25T16:29:20.003Z</time></trkpt><trkpt lat="48.569154887686" lon="-4.407025838549178"><ele>64.0</ele><time>2026-04-25T16:29:21.003Z</time></trkpt><trkpt lat="48.56924049709644" lon="-4.407083279143865"><ele>64.0</ele><time>2026-04-25T16:29:22.003Z</time></trkpt><trkpt lat="48.569324712396345" lon="-4.407133844168309"><ele>64.0</ele><time>2026-04-25T16:29:23.003Z</time></trkpt><trkpt lat="48.569409290028126" lon="-4.407177817764465"><ele>64.0</ele><time>2026-04-25T16:29:24.003Z</time></trkpt><trkpt lat="48.569483182352535" lon="-4.407225479052342"><ele>63.99999999999999</ele><time>2026-04-25T16:29:25.003Z</time></trkpt><trkpt lat="48.569550886127395" lon="-4.407271628473017"><ele>64.0</ele><time>2026-04-25T16:29:26.003Z</time></trkpt><trkpt lat="48.56961256064933" lon="-4.407314375229989"><ele>64.0</ele><time>2026-04-25T16:29:27.003Z</time></trkpt><trkpt lat="48.56970682112442" lon="-4.407371320858718"><ele>64.0</ele><time>2026-04-25T16:29:29.003Z</time></trkpt><trkpt lat="48.569807293107466" lon="-4.407427623771614"><ele>63.99999999999999</ele><time>2026-04-25T16:29:31.003Z</time></trkpt><trkpt lat="48.56989904014551" lon="-4.40747295471777"><ele>64.0</ele><time>2026-04-25T16:29:33.003Z</time></trkpt><trkpt lat="48.56996818362685" lon="-4.407495981815169"><ele>64.0</ele><time>2026-04-25T16:29:35.003Z</time></trkpt><trkpt lat="48.5700612121847" lon="-4.407526567515113"><ele>64.0</ele><time>2026-04-25T16:29:38.003Z</time></trkpt><trkpt lat="48.570168508151895" lon="-4.4075701280952915"><ele>64.0</ele><time>2026-04-25T16:29:40.005Z</time></trkpt><trkpt lat="48.57027201010724" lon="-4.4075913797846304"><ele>64.0</ele><time>2026-04-25T16:29:42.005Z</time></trkpt><trkpt lat="48.57038048057239" lon="-4.407573920068042"><ele>64.0</ele><time>2026-04-25T16:29:44.005Z</time></trkpt><trkpt lat="48.57051473379436" lon="-4.407581566123658"><ele>63.666666666666664</ele><time>2026-04-25T16:29:46.004Z</time></trkpt><trkpt lat="48.57059835977529" lon="-4.40757910527002"><ele>63.33333333333333</ele><time>2026-04-25T16:29:47.004Z</time></trkpt><trkpt lat="48.570673276892855" lon="-4.407578673572172"><ele>63.0</ele><time>2026-04-25T16:29:48.004Z</time></trkpt><trkpt lat="48.57075207699973" lon="-4.4075838772462745"><ele>62.66666666666667</ele><time>2026-04-25T16:29:49.005Z</time></trkpt><trkpt lat="48.57083575511914" lon="-4.407584996418383"><ele>62.333333333333336</ele><time>2026-04-25T16:29:50.005Z</time></trkpt><trkpt lat="48.570912003225764" lon="-4.407589840028475"><ele>62.0</ele><time>2026-04-25T16:29:51.005Z</time></trkpt><trkpt lat="48.57097653896602" lon="-4.407580049675168"><ele>62.00000000000001</ele><time>2026-04-25T16:29:52.005Z</time></trkpt><trkpt lat="48.571100165164694" lon="-4.407580053594848"><ele>62.0</ele><time>2026-04-25T16:29:54.005Z</time></trkpt><trkpt lat="48.57116986276162" lon="-4.407573960417382"><ele>62.0</ele><time>2026-04-25T16:29:55.005Z</time></trkpt><trkpt lat="48.57124851233056" lon="-4.407573664840046"><ele>62.0</ele><time>2026-04-25T16:29:56.005Z</time></trkpt><trkpt lat="48.571333639350435" lon="-4.407572346177003"><ele>62.00000000000001</ele><time>2026-04-25T16:29:57.005Z</time></trkpt><trkpt lat="48.57142145621449" lon="-4.407573046024658"><ele>62.0</ele><time>2026-04-25T16:29:58.005Z</time></trkpt><trkpt lat="48.57150024602362" lon="-4.407573616338396"><ele>61.66666666666667</ele><time>2026-04-25T16:29:59.005Z</time></trkpt><trkpt lat="48.57157145029964" lon="-4.407577979254604"><ele>61.333333333333336</ele><time>2026-04-25T16:30:00.005Z</time></trkpt><trkpt lat="48.5716462834543" lon="-4.4075751428917656"><ele>61.0</ele><time>2026-04-25T16:30:01.005Z</time></trkpt><trkpt lat="48.57171779796472" lon="-4.40757419718662"><ele>60.66666666666667</ele><time>2026-04-25T16:30:02.005Z</time></trkpt><trkpt lat="48.57178418510738" lon="-4.407577156350387"><ele>60.333333333333336</ele><time>2026-04-25T16:30:03.005Z</time></trkpt><trkpt lat="48.571910949979305" lon="-4.407586581161062"><ele>60.0</ele><time>2026-04-25T16:30:05.005Z</time></trkpt><trkpt lat="48.571978036898074" lon="-4.40758786333026"><ele>60.166666666666664</ele><time>2026-04-25T16:30:06.005Z</time></trkpt><trkpt lat="48.572078857163376" lon="-4.407580470227652"><ele>60.33333333333333</ele><time>2026-04-25T16:30:08.005Z</time></trkpt><trkpt lat="48.57216673186162" lon="-4.407572595087795"><ele>60.5</ele><time>2026-04-25T16:30:10.005Z</time></trkpt><trkpt lat="48.57223977188043" lon="-4.40761766793558"><ele>60.666666666666664</ele><time>2026-04-25T16:30:12.005Z</time></trkpt><trkpt lat="48.5722614912078" lon="-4.407750516756511"><ele>60.83333333333333</ele><time>2026-04-25T16:30:14.005Z</time></trkpt><trkpt lat="48.572235144923425" lon="-4.407845496581688"><ele>61.0</ele><time>2026-04-25T16:30:15.005Z</time></trkpt><trkpt lat="48.572155553565445" lon="-4.407982262294492"><ele>60.5</ele><time>2026-04-25T16:30:17.005Z</time></trkpt><trkpt lat="48.572084634846966" lon="-4.408132059556282"><ele>60.0</ele><time>2026-04-25T16:30:19.005Z</time></trkpt><trkpt lat="48.57202684422374" lon="-4.408277462222225"><ele>59.5</ele><time>2026-04-25T16:30:21.005Z</time></trkpt><trkpt lat="48.5719725909187" lon="-4.408413931880047"><ele>59.0</ele><time>2026-04-25T16:30:23.005Z</time></trkpt><trkpt lat="48.57191434053166" lon="-4.408569282766542"><ele>59.0</ele><time>2026-04-25T16:30:25.005Z</time></trkpt><trkpt lat="48.571862313978535" lon="-4.408702035432514"><ele>59.00000000000001</ele><time>2026-04-25T16:30:27.005Z</time></trkpt><trkpt lat="48.571829887798856" lon="-4.408786541793527"><ele>59.00000000000001</ele><time>2026-04-25T16:30:28.005Z</time></trkpt><trkpt lat="48.571794007176074" lon="-4.408873867389792"><ele>59.0</ele><time>2026-04-25T16:30:29.005Z</time></trkpt><trkpt lat="48.57175536169038" lon="-4.409015457561222"><ele>59.0</ele><time>2026-04-25T16:30:31.005Z</time></trkpt><trkpt lat="48.57172268545702" lon="-4.4091955322569065"><ele>59.0</ele><time>2026-04-25T16:30:33.005Z</time></trkpt><trkpt lat="48.57171360687724" lon="-4.409317913842011"><ele>59.00000000000001</ele><time>2026-04-25T16:30:34.005Z</time></trkpt><trkpt lat="48.571708247678835" lon="-4.409420522473883"><ele>59.00000000000001</ele><time>2026-04-25T16:30:35.005Z</time></trkpt><trkpt lat="48.57171642848644" lon="-4.409588021775313"><ele>59.0</ele><time>2026-04-25T16:30:37.005Z</time></trkpt><trkpt lat="48.57171654544758" lon="-4.4097350662688815"><ele>59.0</ele><time>2026-04-25T16:30:39.005Z</time></trkpt><trkpt lat="48.5717053400261" lon="-4.409898519464218"><ele>58.833333333333336</ele><time>2026-04-25T16:30:41.004Z</time></trkpt><trkpt lat="48.57169695976523" lon="-4.41000343473234"><ele>58.66666666666667</ele><time>2026-04-25T16:30:42.004Z</time></trkpt><trkpt lat="48.57168511761577" lon="-4.410127516699368"><ele>58.5</ele><time>2026-04-25T16:30:43.004Z</time></trkpt><trkpt lat="48.57166797913309" lon="-4.410252773027171"><ele>58.33333333333333</ele><time>2026-04-25T16:30:44.004Z</time></trkpt><trkpt lat="48.57165548652299" lon="-4.410364310577866"><ele>58.166666666666664</ele><time>2026-04-25T16:30:45.004Z</time></trkpt><trkpt lat="48.57164688622557" lon="-4.410483169175567"><ele>58.0</ele><time>2026-04-25T16:30:46.004Z</time></trkpt><trkpt lat="48.57163505127187" lon="-4.410594455858257"><ele>57.99999999999999</ele><time>2026-04-25T16:30:47.004Z</time></trkpt><trkpt lat="48.57162502859654" lon="-4.410703728287765"><ele>58.0</ele><time>2026-04-25T16:30:48.004Z</time></trkpt><trkpt lat="48.571617410383354" lon="-4.410820348087272"><ele>58.0</ele><time>2026-04-25T16:30:49.004Z</time></trkpt><trkpt lat="48.571613956541974" lon="-4.4109445137776735"><ele>58.0</ele><time>2026-04-25T16:30:50.004Z</time></trkpt><trkpt lat="48.57160274082474" lon="-4.411080851902747"><ele>57.99999999999999</ele><time>2026-04-25T16:30:51.004Z</time></trkpt><trkpt lat="48.57159458183989" lon="-4.411221285708164"><ele>58.0</ele><time>2026-04-25T16:30:52.004Z</time></trkpt><trkpt lat="48.5715958271424" lon="-4.41135715160185"><ele>57.83333333333333</ele><time>2026-04-25T16:30:53.004Z</time></trkpt><trkpt lat="48.57157505577561" lon="-4.411511764470261"><ele>57.666666666666664</ele><time>2026-04-25T16:30:54.004Z</time></trkpt><trkpt lat="48.57156639578462" lon="-4.411655423518936"><ele>57.5</ele><time>2026-04-25T16:30:55.004Z</time></trkpt><trkpt lat="48.57155364250403" lon="-4.41178238585755"><ele>57.33333333333333</ele><time>2026-04-25T16:30:56.004Z</time></trkpt><trkpt lat="48.57155293092819" lon="-4.411888245073449"><ele>57.166666666666664</ele><time>2026-04-25T16:30:57.004Z</time></trkpt><trkpt lat="48.57155356563544" lon="-4.411993448915994"><ele>57.0</ele><time>2026-04-25T16:30:58.004Z</time></trkpt><trkpt lat="48.57156178053976" lon="-4.412093805280451"><ele>57.25</ele><time>2026-04-25T16:30:59.004Z</time></trkpt><trkpt lat="48.57161903159169" lon="-4.41224202634072"><ele>57.5</ele><time>2026-04-25T16:31:01.004Z</time></trkpt><trkpt lat="48.57173333269395" lon="-4.412294809089808"><ele>57.75</ele><time>2026-04-25T16:31:03.004Z</time></trkpt><trkpt lat="48.571833294757106" lon="-4.41224824396647"><ele>58.0</ele><time>2026-04-25T16:31:05.004Z</time></trkpt><trkpt lat="48.57193691961265" lon="-4.412334921486341"><ele>57.99999999999999</ele><time>2026-04-25T16:31:07.004Z</time></trkpt><trkpt lat="48.571948889787535" lon="-4.412452162575331"><ele>58.0</ele><time>2026-04-25T16:31:08.004Z</time></trkpt><trkpt lat="48.571942790954324" lon="-4.4125569344386495"><ele>58.0</ele><time>2026-04-25T16:31:09.004Z</time></trkpt><trkpt lat="48.57195016345142" lon="-4.412695423802216"><ele>58.0</ele><time>2026-04-25T16:31:11.004Z</time></trkpt><trkpt lat="48.57195947223744" lon="-4.412821436654979"><ele>57.99999999999999</ele><time>2026-04-25T16:31:13.004Z</time></trkpt><trkpt lat="48.57197025062714" lon="-4.412999076888793"><ele>58.0</ele><time>2026-04-25T16:31:15.004Z</time></trkpt><trkpt lat="48.571977910458095" lon="-4.413147398819788"><ele>57.99999999999999</ele><time>2026-04-25T16:31:17.004Z</time></trkpt><trkpt lat="48.57199046935409" lon="-4.413318197669885"><ele>58.0</ele><time>2026-04-25T16:31:19.004Z</time></trkpt><trkpt lat="48.571996021227584" lon="-4.413413047264012"><ele>58.0</ele><time>2026-04-25T16:31:20.004Z</time></trkpt><trkpt lat="48.571998547738616" lon="-4.413515304694301"><ele>58.0</ele><time>2026-04-25T16:31:21.004Z</time></trkpt><trkpt lat="48.57200454160457" lon="-4.413628876109206"><ele>57.99999999999999</ele><time>2026-04-25T16:31:22.004Z</time></trkpt><trkpt lat="48.57201145388194" lon="-4.413750989596858"><ele>58.0</ele><time>2026-04-25T16:31:23.004Z</time></trkpt><trkpt lat="48.57201913964204" lon="-4.413876317006867"><ele>58.4</ele><time>2026-04-25T16:31:24.004Z</time></trkpt><trkpt lat="48.57202635025614" lon="-4.413977134797861"><ele>58.8</ele><time>2026-04-25T16:31:25.004Z</time></trkpt><trkpt lat="48.57204217201174" lon="-4.4141574873915275"><ele>59.2</ele><time>2026-04-25T16:31:27.004Z</time></trkpt><trkpt lat="48.57204854142015" lon="-4.414328663761864"><ele>59.6</ele><time>2026-04-25T16:31:29.004Z</time></trkpt><trkpt lat="48.57204895610803" lon="-4.4144714506914235"><ele>60.0</ele><time>2026-04-25T16:31:31.004Z</time></trkpt><trkpt lat="48.57206831715133" lon="-4.414601598596985"><ele>60.4</ele><time>2026-04-25T16:31:33.004Z</time></trkpt><trkpt lat="48.57207846861325" lon="-4.414766870421091"><ele>60.8</ele><time>2026-04-25T16:31:35.004Z</time></trkpt><trkpt lat="48.5721031310643" lon="-4.4149034547808235"><ele>61.2</ele><time>2026-04-25T16:31:37.004Z</time></trkpt><trkpt lat="48.57216177104145" lon="-4.414999039254623"><ele>61.6</ele><time>2026-04-25T16:31:39.004Z</time></trkpt><trkpt lat="48.57228305157924" lon="-4.4149827348515105"><ele>62.0</ele><time>2026-04-25T16:31:41.004Z</time></trkpt><trkpt lat="48.57241254391347" lon="-4.414917314308651"><ele>62.0</ele><time>2026-04-25T16:31:43.004Z</time></trkpt><trkpt lat="48.5724739945809" lon="-4.414890894258578"><ele>62.00000000000001</ele><time>2026-04-25T16:31:44.004Z</time></trkpt><trkpt lat="48.572539413157806" lon="-4.414865840893588"><ele>62.0</ele><time>2026-04-25T16:31:45.005Z</time></trkpt><trkpt lat="48.57260737432282" lon="-4.414830410008642"><ele>62.0</ele><time>2026-04-25T16:31:46.005Z</time></trkpt><trkpt lat="48.572682867567245" lon="-4.41480530465022"><ele>62.00000000000001</ele><time>2026-04-25T16:31:47.005Z</time></trkpt><trkpt lat="48.57276151382623" lon="-4.414780084340661"><ele>62.0</ele><time>2026-04-25T16:31:48.005Z</time></trkpt><trkpt lat="48.572843135620936" lon="-4.414751477613313"><ele>62.0</ele><time>2026-04-25T16:31:49.005Z</time></trkpt><trkpt lat="48.57292367090241" lon="-4.414728536252676"><ele>62.2</ele><time>2026-04-25T16:31:50.005Z</time></trkpt><trkpt lat="48.5730002551067" lon="-4.4147136488333265"><ele>62.400000000000006</ele><time>2026-04-25T16:31:51.004Z</time></trkpt><trkpt lat="48.57306672942291" lon="-4.414684610104482"><ele>62.599999999999994</ele><time>2026-04-25T16:31:52.005Z</time></trkpt><trkpt lat="48.573183988043574" lon="-4.414642175895047"><ele>62.8</ele><time>2026-04-25T16:31:54.005Z</time></trkpt><trkpt lat="48.57329573371959" lon="-4.41459073965445"><ele>63.0</ele><time>2026-04-25T16:31:56.005Z</time></trkpt><trkpt lat="48.57339436984391" lon="-4.414568358865925"><ele>61.0</ele><time>2026-04-25T16:31:58.005Z</time></trkpt><trkpt lat="48.573464355663084" lon="-4.4145278038290074"><ele>61.0</ele><time>2026-04-25T16:32:01.005Z</time></trkpt><trkpt lat="48.573467543477285" lon="-4.41442604680894"><ele>61.0</ele><time>2026-04-25T16:32:06.005Z</time></trkpt><trkpt lat="48.573451976164925" lon="-4.414312852316618"><ele>61.0</ele><time>2026-04-25T16:32:42.004Z</time></trkpt><trkpt lat="48.573451056733795" lon="-4.414205958614257"><ele>61.0</ele><time>2026-04-25T16:33:07.004Z</time></trkpt><trkpt lat="48.57344017388231" lon="-4.414112145283917"><ele>61.0</ele><time>2026-04-25T16:33:14.004Z</time></trkpt><trkpt lat="48.57338077781035" lon="-4.414153070282094"><ele>61.0</ele><time>2026-04-25T16:33:39.004Z</time></trkpt></trkseg></trk></gpx>